Wetterdaten: Dienstag, 04.08.2020
Datum Zeit Temp. Aussen Temp. o. S. Temp +5cm Feuchte Auss Luftdruck Regen Sonnenschein Regendauer Solar Windben Empfang
04.08.2020 00:00 16,4 C 15,0 C 15,0 C 80 % 1014,5 hPa 0,0 l/m 0 min 0 min 0 W/m 9,7 km/h (2 Bft) 97,87 %
04.08.2020 00:02 16,4 C 15,0 C 15,0 C 80 % 1014,5 hPa 0,0 l/m 0 min 0 min 0 W/m 0,0 km/h (0 Bft) 12,50 %
04.08.2020 00:04 16,4 C 15,0 C 15,0 C 81 % 1014,5 hPa 0,0 l/m 0 min 0 min 0 W/m 3,2 km/h (1 Bft) 83,78 %
04.08.2020 00:08 16,3 C 15,0 C 15,0 C 81 % 1014,5 hPa 0,0 l/m 0 min 0 min 0 W/m 3,2 km/h (1 Bft) 100,00 %
04.08.2020 00:10 16,3 C 14,4 C 15,0 C 81 % 1014,5 hPa 0,0 l/m 0 min 0 min 0 W/m 3,2 km/h (1 Bft) 100,00 %
04.08.2020 00:12 16,3 C 14,4 C 15,0 C 81 % 1014,6 hPa 0,0 l/m 0 min 0 min 0 W/m 3,2 km/h (1 Bft) 100,00 %
04.08.2020 00:14 16,3 C 14,4 C 15,0 C 81 % 1014,5 hPa 0,0 l/m 0 min 0 min 0 W/m 3,2 km/h (1 Bft) 97,87 %
04.08.2020 00:16 16,3 C 14,4 C 15,0 C 82 % 1014,6 hPa 0,0 l/m 0 min 0 min 0 W/m 3,2 km/h (1 Bft) 100,00 %
04.08.2020 00:18 16,3 C 14,4 C 15,0 C 82 % 1014,6 hPa 0,0 l/m 0 min 0 min 0 W/m 6,4 km/h (2 Bft) 100,00 %
04.08.2020 00:20 16,2 C 14,4 C 15,0 C 82 % 1014,6 hPa 0,0 l/m 0 min 0 min 0 W/m 9,7 km/h (2 Bft) 95,65 %
04.08.2020 00:22 16,2 C 14,4 C 15,0 C 82 % 1014,6 hPa 0,0 l/m 0 min 0 min 0 W/m 3,2 km/h (1 Bft) 95,74 %
04.08.2020 00:24 16,2 C 14,4 C 15,0 C 82 % 1014,7 hPa 0,0 l/m 0 min 0 min 0 W/m 12,9 km/h (3 Bft) 97,87 %
04.08.2020 00:26 16,2 C 14,4 C 15,0 C 82 % 1014,7 hPa 0,0 l/m 0 min 0 min 0 W/m 3,2 km/h (1 Bft) 97,87 %
04.08.2020 00:28 16,2 C 15,0 C 15,0 C 82 % 1014,7 hPa 0,0 l/m 0 min 0 min 0 W/m 12,9 km/h (3 Bft) 97,87 %
04.08.2020 00:30 16,2 C 15,0 C 15,0 C 83 % 1014,8 hPa 0,0 l/m 0 min 0 min 0 W/m 3,2 km/h (1 Bft) 97,87 %
04.08.2020 00:32 16,1 C 15,0 C 15,0 C 83 % 1014,8 hPa 0,0 l/m 0 min 0 min 0 W/m 3,2 km/h (1 Bft) 97,83 %
04.08.2020 00:34 16,1 C 15,0 C 15,0 C 83 % 1014,8 hPa 0,0 l/m 0 min 0 min 0 W/m 9,7 km/h (2 Bft) 95,74 %
04.08.2020 00:36 16,1 C 15,0 C 15,0 C 83 % 1014,8 hPa 0,0 l/m 0 min 0 min 0 W/m 0,0 km/h (0 Bft) 97,87 %
04.08.2020 00:38 16,1 C 15,0 C 15,0 C 83 % 1014,9 hPa 0,0 l/m 0 min 0 min 0 W/m 0,0 km/h (0 Bft) 95,74 %
04.08.2020 00:40 16,1 C 14,4 C 15,0 C 83 % 1014,9 hPa 0,0 l/m 0 min 0 min 0 W/m 0,0 km/h (0 Bft) 97,87 %
04.08.2020 00:42 16,1 C 14,4 C 15,0 C 83 % 1014,9 hPa 0,0 l/m 0 min 0 min 0 W/m 6,4 km/h (2 Bft) 97,87 %
04.08.2020 00:44 16,1 C 14,4 C 15,0 C 83 % 1014,9 hPa 0,0 l/m 0 min 0 min 0 W/m 3,2 km/h (1 Bft) 97,83 %
04.08.2020 00:46 16,1 C 14,4 C 15,0 C 83 % 1014,9 hPa 0,0 l/m 0 min 0 min 0 W/m 0,0 km/h (0 Bft) 97,87 %
04.08.2020 00:48 16,0 C 14,4 C 15,0 C 83 % 1014,9 hPa 0,0 l/m 0 min 0 min 0 W/m 3,2 km/h (1 Bft) 97,87 %
04.08.2020 00:50 16,0 C 14,4 C 15,0 C 83 % 1014,9 hPa 0,0 l/m 0 min 0 min 0 W/m 6,4 km/h (2 Bft) 97,87 %
04.08.2020 00:52 16,0 C 14,4 C 15,0 C 83 % 1014,9 hPa 0,0 l/m 0 min 0 min 0 W/m 3,2 km/h (1 Bft) 89,36 %
04.08.2020 00:54 16,0 C 14,4 C 15,0 C 83 % 1014,9 hPa 0,0 l/m 0 min 0 min 0 W/m 3,2 km/h (1 Bft) 93,62 %
04.08.2020 00:56 16,0 C 15,0 C 15,0 C 84 % 1014,9 hPa 0,0 l/m 0 min 0 min 0 W/m 9,7 km/h (2 Bft) 93,48 %
04.08.2020 00:58 15,9 C 15,0 C 15,0 C 84 % 1015,0 hPa 0,0 l/m 0 min 0 min 0 W/m 3,2 km/h (1 Bft) 93,62 %
04.08.2020 01:00 15,9 C 15,0 C 15,0 C 84 % 1015,0 hPa 0,0 l/m 0 min 0 min 0 W/m 6,4 km/h (2 Bft) 93,62 %
04.08.2020 01:02 15,9 C 15,0 C 15,0 C 84 % 1015,1 hPa 0,0 l/m 0 min 0 min 0 W/m 3,2 km/h (1 Bft) 89,36 %
04.08.2020 01:04 15,9 C 15,0 C 15,0 C 84 % 1015,1 hPa 0,0 l/m 0 min 0 min 0 W/m 3,2 km/h (1 Bft) 93,62 %
04.08.2020 01:06 15,9 C 15,0 C 15,0 C 84 % 1015,1 hPa 0,0 l/m 0 min 0 min 0 W/m 3,2 km/h (1 Bft) 93,48 %
04.08.2020 01:08 15,9 C 15,0 C 15,0 C 84 % 1015,1 hPa 0,0 l/m 0 min 0 min 0 W/m 9,7 km/h (2 Bft) 93,62 %
04.08.2020 01:10 15,9 C 15,0 C 15,0 C 84 % 1015,2 hPa 0,0 l/m 0 min 0 min 0 W/m 3,2 km/h (1 Bft) 91,84 %
04.08.2020 01:12 15,9 C 14,4 C 15,0 C 84 % 1015,2 hPa 0,0 l/m 0 min 0 min 0 W/m 3,2 km/h (1 Bft) 95,74 %
04.08.2020 01:14 15,9 C 14,4 C 15,0 C 84 % 1015,2 hPa 0,0 l/m 0 min 0 min 0 W/m 3,2 km/h (1 Bft) 95,74 %
04.08.2020 01:16 15,9 C 15,0 C 15,0 C 84 % 1015,2 hPa 0,0 l/m 0 min 0 min 0 W/m 6,4 km/h (2 Bft) 93,62 %
04.08.2020 01:18 15,9 C 14,4 C 15,0 C 84 % 1015,2 hPa 0,0 l/m 0 min 0 min 0 W/m 3,2 km/h (1 Bft) 95,65 %
04.08.2020 01:20 15,9 C 14,4 C 15,0 C 84 % 1015,3 hPa 0,0 l/m 0 min 0 min 0 W/m 0,0 km/h (0 Bft) 95,74 %
04.08.2020 01:22 15,9 C 15,0 C 15,0 C 84 % 1015,3 hPa 0,0 l/m 0 min 0 min 0 W/m 3,2 km/h (1 Bft) 93,62 %
04.08.2020 01:24 15,9 C 14,4 C 15,0 C 84 % 1015,3 hPa 0,0 l/m 0 min 0 min 0 W/m 3,2 km/h (1 Bft) 95,74 %
04.08.2020 01:26 15,9 C 14,4 C 15,0 C 84 % 1015,3 hPa 0,0 l/m 0 min 0 min 0 W/m 3,2 km/h (1 Bft) 91,49 %
04.08.2020 01:28 15,9 C 15,0 C 15,0 C 84 % 1015,3 hPa 0,0 l/m 0 min 0 min 0 W/m 6,4 km/h (2 Bft) 95,74 %
04.08.2020 01:30 15,9 C 15,0 C 15,0 C 85 % 1015,3 hPa 0,0 l/m 0 min 0 min 0 W/m 6,4 km/h (2 Bft) 95,65 %
04.08.2020 01:32 15,9 C 15,0 C 15,0 C 85 % 1015,3 hPa 0,0 l/m 0 min 0 min 0 W/m 3,2 km/h (1 Bft) 93,62 %
04.08.2020 01:34 15,9 C 14,4 C 15,0 C 85 % 1015,3 hPa 0,0 l/m 0 min 0 min 0 W/m 3,2 km/h (1 Bft) 95,74 %
04.08.2020 01:36 15,9 C 14,4 C 15,0 C 85 % 1015,3 hPa 0,0 l/m 0 min 0 min 0 W/m 3,2 km/h (1 Bft) 95,74 %
04.08.2020 01:38 15,8 C 14,4 C 15,0 C 85 % 1015,3 hPa 0,0 l/m 0 min 0 min 0 W/m 6,4 km/h (2 Bft) 95,74 %
04.08.2020 01:40 15,8 C 14,4 C 15,0 C 85 % 1015,3 hPa 0,0 l/m 0 min 0 min 0 W/m 6,4 km/h (2 Bft) 95,65 %
04.08.2020 01:42 15,8 C 14,4 C 15,0 C 85 % 1015,2 hPa 0,0 l/m 0 min 0 min 0 W/m 3,2 km/h (1 Bft) 95,74 %
04.08.2020 01:44 15,8 C 14,4 C 15,0 C 85 % 1015,2 hPa 0,0 l/m 0 min 0 min 0 W/m 3,2 km/h (1 Bft) 95,74 %
04.08.2020 01:46 15,8 C 14,4 C 15,0 C 85 % 1015,3 hPa 0,0 l/m 0 min 0 min 0 W/m 3,2 km/h (1 Bft) 95,74 %
04.08.2020 01:48 15,8 C 14,4 C 15,0 C 85 % 1015,3 hPa 0,0 l/m 0 min 0 min 0 W/m 0,0 km/h (0 Bft) 93,62 %
04.08.2020 01:50 15,8 C 14,4 C 15,0 C 85 % 1015,3 hPa 0,0 l/m 0 min 0 min 0 W/m 3,2 km/h (1 Bft) 91,49 %
04.08.2020 01:52 15,8 C 14,4 C 15,0 C 85 % 1015,3 hPa 0,0 l/m 0 min 0 min 0 W/m 3,2 km/h (1 Bft) 97,83 %
04.08.2020 01:54 15,8 C 14,4 C 15,0 C 85 % 1015,3 hPa 0,0 l/m 0 min 0 min 0 W/m 6,4 km/h (2 Bft) 97,87 %
04.08.2020 01:56 15,8 C 14,4 C 15,0 C 85 % 1015,3 hPa 0,0 l/m 0 min 0 min 0 W/m 6,4 km/h (2 Bft) 97,87 %
04.08.2020 01:58 15,7 C 14,4 C 15,0 C 85 % 1015,3 hPa 0,0 l/m 0 min 0 min 0 W/m 3,2 km/h (1 Bft) 97,87 %
04.08.2020 02:00 15,7 C 14,4 C 15,0 C 85 % 1015,2 hPa 0,0 l/m 0 min 0 min 0 W/m 3,2 km/h (1 Bft) 100,00 %
04.08.2020 02:02 15,7 C 14,4 C 15,0 C 85 % 1015,3 hPa 0,0 l/m 0 min 0 min 0 W/m 3,2 km/h (1 Bft) 100,00 %
04.08.2020 02:04 15,7 C 14,4 C 15,0 C 85 % 1015,3 hPa 0,0 l/m 0 min 0 min 0 W/m 6,4 km/h (2 Bft) 100,00 %
04.08.2020 02:06 15,7 C 14,4 C 15,0 C 85 % 1015,2 hPa 0,0 l/m 0 min 0 min 0 W/m 3,2 km/h (1 Bft) 100,00 %
04.08.2020 02:08 15,7 C 14,4 C 15,0 C 85 % 1015,3 hPa 0,0 l/m 0 min 0 min 0 W/m 6,4 km/h (2 Bft) 97,87 %
04.08.2020 02:10 15,7 C 14,4 C 15,0 C 85 % 1015,2 hPa 0,0 l/m 0 min 0 min 0 W/m 12,9 km/h (3 Bft) 100,00 %
04.08.2020 02:12 15,7 C 14,4 C 15,0 C 85 % 1015,3 hPa 0,0 l/m 0 min 0 min 0 W/m 3,2 km/h (1 Bft) 100,00 %
04.08.2020 02:14 15,7 C 14,4 C 15,0 C 85 % 1015,2 hPa 0,0 l/m 0 min 0 min 0 W/m 0,0 km/h (0 Bft) 100,00 %
04.08.2020 02:16 15,7 C 14,4 C 15,0 C 85 % 1015,2 hPa 0,0 l/m 0 min 0 min 0 W/m 3,2 km/h (1 Bft) 97,83 %
04.08.2020 02:18 15,6 C 14,4 C 15,0 C 86 % 1015,2 hPa 0,0 l/m 0 min 0 min 0 W/m 6,4 km/h (2 Bft) 97,87 %
04.08.2020 02:20 15,6 C 14,4 C 15,0 C 86 % 1015,2 hPa 0,0 l/m 0 min 0 min 0 W/m 3,2 km/h (1 Bft) 100,00 %
04.08.2020 02:22 15,6 C 14,4 C 15,0 C 86 % 1015,2 hPa 0,0 l/m 0 min 0 min 0 W/m 6,4 km/h (2 Bft) 97,87 %
04.08.2020 02:24 15,6 C 14,4 C 15,0 C 86 % 1015,2 hPa 0,0 l/m 0 min 0 min 0 W/m 9,7 km/h (2 Bft) 100,00 %
04.08.2020 02:26 15,6 C 14,4 C 15,0 C 86 % 1015,2 hPa 0,0 l/m 0 min 0 min 0 W/m 6,4 km/h (2 Bft) 100,00 %
04.08.2020 02:28 15,6 C 14,4 C 15,0 C 86 % 1015,2 hPa 0,0 l/m 0 min 0 min 0 W/m 6,4 km/h (2 Bft) 100,00 %
04.08.2020 02:30 15,6 C 14,4 C 15,0 C 86 % 1015,2 hPa 0,0 l/m 0 min 0 min 0 W/m 3,2 km/h (1 Bft) 97,87 %
04.08.2020 02:32 15,6 C 14,4 C 15,0 C 86 % 1015,2 hPa 0,0 l/m 0 min 0 min 0 W/m 3,2 km/h (1 Bft) 100,00 %
04.08.2020 02:34 15,6 C 14,4 C 15,0 C 86 % 1015,2 hPa 0,0 l/m 0 min 0 min 0 W/m 9,7 km/h (2 Bft) 100,00 %
04.08.2020 02:36 15,6 C 14,4 C 15,0 C 86 % 1015,2 hPa 0,0 l/m 0 min 0 min 0 W/m 3,2 km/h (1 Bft) 100,00 %
04.08.2020 02:38 15,6 C 14,4 C 14,4 C 86 % 1015,2 hPa 0,0 l/m 0 min 0 min 0 W/m 3,2 km/h (1 Bft) 100,00 %
04.08.2020 02:40 15,6 C 14,4 C 14,4 C 86 % 1015,1 hPa 0,0 l/m 0 min 0 min 0 W/m 3,2 km/h (1 Bft) 100,00 %
04.08.2020 02:42 15,6 C 14,4 C 14,4 C 86 % 1015,1 hPa 0,0 l/m 0 min 0 min 0 W/m 3,2 km/h (1 Bft) 100,00 %
04.08.2020 02:44 15,6 C 13,9 C 14,4 C 86 % 1015,0 hPa 0,0 l/m 0 min 0 min 0 W/m 0,0 km/h (0 Bft) 100,00 %
04.08.2020 02:46 15,5 C 13,9 C 14,4 C 86 % 1015,0 hPa 0,0 l/m 0 min 0 min 0 W/m 6,4 km/h (2 Bft) 97,87 %
04.08.2020 02:48 15,5 C 13,9 C 13,9 C 86 % 1015,0 hPa 0,0 l/m 0 min 0 min 0 W/m 0,0 km/h (0 Bft) 100,00 %
04.08.2020 02:50 15,5 C 13,9 C 13,9 C 86 % 1015,0 hPa 0,0 l/m 0 min 0 min 0 W/m 0,0 km/h (0 Bft) 100,00 %
04.08.2020 02:52 15,5 C 13,9 C 13,9 C 86 % 1015,0 hPa 0,0 l/m 0 min 0 min 0 W/m 0,0 km/h (0 Bft) 100,00 %
04.08.2020 02:54 15,4 C 13,3 C 13,9 C 86 % 1015,1 hPa 0,0 l/m 0 min 0 min 0 W/m 0,0 km/h (0 Bft) 100,00 %
04.08.2020 02:56 15,4 C 13,3 C 13,9 C 86 % 1015,1 hPa 0,0 l/m 0 min 0 min 0 W/m 3,2 km/h (1 Bft) 100,00 %
04.08.2020 02:58 15,4 C 13,3 C 13,9 C 86 % 1015,1 hPa 0,0 l/m 0 min 0 min 0 W/m 3,2 km/h (1 Bft) 100,00 %
04.08.2020 03:00 15,4 C 13,3 C 13,3 C 86 % 1015,1 hPa 0,0 l/m 0 min 0 min 0 W/m 0,0 km/h (0 Bft) 100,00 %
04.08.2020 03:02 15,4 C 13,3 C 13,3 C 86 % 1015,2 hPa 0,0 l/m 0 min 0 min 0 W/m 3,2 km/h (1 Bft) 100,00 %
04.08.2020 03:04 15,3 C 13,3 C 13,3 C 86 % 1015,2 hPa 0,0 l/m 0 min 0 min 0 W/m 6,4 km/h (2 Bft) 100,00 %
04.08.2020 03:06 15,3 C 13,3 C 13,3 C 86 % 1015,2 hPa 0,0 l/m 0 min 0 min 0 W/m 0,0 km/h (0 Bft) 97,87 %
04.08.2020 03:08 15,3 C 13,3 C 13,3 C 86 % 1015,2 hPa 0,0 l/m 0 min 0 min 0 W/m 0,0 km/h (0 Bft) 100,00 %
04.08.2020 03:10 15,3 C 13,3 C 13,3 C 86 % 1015,1 hPa 0,0 l/m 0 min 0 min 0 W/m 6,4 km/h (2 Bft) 100,00 %
04.08.2020 03:12 15,2 C 13,3 C 13,3 C 86 % 1015,1 hPa 0,0 l/m 0 min 0 min 0 W/m 3,2 km/h (1 Bft) 100,00 %
04.08.2020 03:14 15,2 C 12,8 C 13,3 C 86 % 1015,1 hPa 0,0 l/m 0 min 0 min 0 W/m 0,0 km/h (0 Bft) 100,00 %
04.08.2020 03:16 15,2 C 12,8 C 12,8 C 86 % 1015,1 hPa 0,0 l/m 0 min 0 min 0 W/m 0,0 km/h (0 Bft) 97,87 %
04.08.2020 03:18 15,1 C 12,8 C 12,8 C 86 % 1015,1 hPa 0,0 l/m 0 min 0 min 0 W/m 0,0 km/h (0 Bft) 97,87 %
04.08.2020 03:20 15,1 C 12,8 C 12,8 C 86 % 1015,2 hPa 0,0 l/m 0 min 0 min 0 W/m 0,0 km/h (0 Bft) 97,87 %
04.08.2020 03:22 15,1 C 12,8 C 12,8 C 86 % 1015,2 hPa 0,0 l/m 0 min 0 min 0 W/m 0,0 km/h (0 Bft) 97,87 %
04.08.2020 03:24 15,1 C 12,8 C 12,8 C 86 % 1015,2 hPa 0,0 l/m 0 min 0 min 0 W/m 0,0 km/h (0 Bft) 93,62 %
04.08.2020 03:26 15,0 C 12,8 C 12,8 C 86 % 1015,2 hPa 0,0 l/m 0 min 0 min 0 W/m 0,0 km/h (0 Bft) 95,65 %
04.08.2020 03:28 14,9 C 12,8 C 12,8 C 86 % 1015,2 hPa 0,0 l/m 0 min 0 min 0 W/m 0,0 km/h (0 Bft) 97,87 %
04.08.2020 03:30 14,9 C 12,8 C 12,8 C 86 % 1015,2 hPa 0,0 l/m 0 min 0 min 0 W/m 3,2 km/h (1 Bft) 95,74 %
04.08.2020 03:32 14,8 C 12,8 C 12,8 C 86 % 1015,2 hPa 0,0 l/m 0 min 0 min 0 W/m 3,2 km/h (1 Bft) 95,74 %
04.08.2020 03:34 14,8 C 12,8 C 12,8 C 87 % 1015,2 hPa 0,0 l/m 0 min 0 min 0 W/m 0,0 km/h (0 Bft) 95,74 %
04.08.2020 03:36 14,7 C 12,8 C 12,8 C 87 % 1015,2 hPa 0,0 l/m 0 min 0 min 0 W/m 0,0 km/h (0 Bft) 95,74 %
04.08.2020 03:38 14,7 C 12,8 C 12,8 C 87 % 1015,2 hPa 0,0 l/m 0 min 0 min 0 W/m 0,0 km/h (0 Bft) 93,48 %
04.08.2020 03:40 14,7 C 12,8 C 12,8 C 87 % 1015,2 hPa 0,0 l/m 0 min 0 min 0 W/m 0,0 km/h (0 Bft) 95,74 %
04.08.2020 03:42 14,6 C 12,8 C 12,8 C 87 % 1015,2 hPa 0,0 l/m 0 min 0 min 0 W/m 0,0 km/h (0 Bft) 95,74 %
04.08.2020 03:44 14,6 C 12,2 C 12,8 C 87 % 1015,2 hPa 0,0 l/m 0 min 0 min 0 W/m 0,0 km/h (0 Bft) 93,62 %
04.08.2020 03:46 14,5 C 12,2 C 12,8 C 88 % 1015,2 hPa 0,0 l/m 0 min 0 min 0 W/m 3,2 km/h (1 Bft) 93,62 %
04.08.2020 03:48 14,5 C 12,2 C 12,8 C 88 % 1015,2 hPa 0,0 l/m 0 min 0 min 0 W/m 3,2 km/h (1 Bft) 95,65 %
04.08.2020 03:50 14,4 C 12,2 C 12,8 C 88 % 1015,2 hPa 0,0 l/m 0 min 0 min 0 W/m 0,0 km/h (0 Bft) 95,74 %
04.08.2020 03:52 14,4 C 12,2 C 12,8 C 88 % 1015,2 hPa 0,0 l/m 0 min 0 min 0 W/m 0,0 km/h (0 Bft) 93,62 %
04.08.2020 03:54 14,3 C 12,2 C 12,8 C 88 % 1015,2 hPa 0,0 l/m 0 min 0 min 0 W/m 0,0 km/h (0 Bft) 95,74 %
04.08.2020 03:56 14,3 C 12,2 C 12,8 C 88 % 1015,2 hPa 0,0 l/m 0 min 0 min 0 W/m 0,0 km/h (0 Bft) 95,74 %
04.08.2020 03:58 14,3 C 12,2 C 12,8 C 88 % 1015,2 hPa 0,0 l/m 0 min 0 min 0 W/m 0,0 km/h (0 Bft) 95,74 %
04.08.2020 04:00 14,3 C 12,2 C 12,2 C 88 % 1015,2 hPa 0,0 l/m 0 min 0 min 0 W/m 0,0 km/h (0 Bft) 95,65 %
04.08.2020 04:02 14,3 C 12,2 C 12,2 C 88 % 1015,3 hPa 0,0 l/m 0 min 0 min 0 W/m 0,0 km/h (0 Bft) 90,00 %
04.08.2020 04:04 14,3 C 12,2 C 12,2 C 88 % 1015,2 hPa 0,0 l/m 0 min 0 min 0 W/m 0,0 km/h (0 Bft) 91,49 %
04.08.2020 04:06 14,3 C 12,2 C 12,2 C 88 % 1015,2 hPa 0,0 l/m 0 min 0 min 0 W/m 0,0 km/h (0 Bft) 95,74 %
04.08.2020 04:08 14,2 C 12,2 C 12,2 C 88 % 1015,3 hPa 0,0 l/m 0 min 0 min 0 W/m 0,0 km/h (0 Bft) 93,62 %
04.08.2020 04:10 14,2 C 12,2 C 12,2 C 88 % 1015,2 hPa 0,0 l/m 0 min 0 min 0 W/m 0,0 km/h (0 Bft) 95,74 %
04.08.2020 04:12 14,1 C 12,2 C 12,2 C 89 % 1015,3 hPa 0,0 l/m 0 min 0 min 0 W/m 0,0 km/h (0 Bft) 95,65 %
04.08.2020 04:14 14,1 C 12,2 C 12,2 C 89 % 1015,3 hPa 0,0 l/m 0 min 0 min 0 W/m 0,0 km/h (0 Bft) 97,87 %
04.08.2020 04:16 14,1 C 12,2 C 12,2 C 89 % 1015,2 hPa 0,0 l/m 0 min 0 min 0 W/m 0,0 km/h (0 Bft) 95,74 %
04.08.2020 04:18 14,0 C 12,2 C 12,2 C 89 % 1015,2 hPa 0,0 l/m 0 min 0 min 0 W/m 0,0 km/h (0 Bft) 97,87 %
04.08.2020 04:20 14,0 C 12,2 C 12,2 C 89 % 1015,3 hPa 0,0 l/m 0 min 0 min 0 W/m 0,0 km/h (0 Bft) 100,00 %
04.08.2020 04:22 13,9 C 12,2 C 12,2 C 89 % 1015,3 hPa 0,0 l/m 0 min 0 min 0 W/m 0,0 km/h (0 Bft) 100,00 %
04.08.2020 04:24 13,9 C 12,2 C 12,2 C 89 % 1015,3 hPa 0,0 l/m 0 min 0 min 0 W/m 0,0 km/h (0 Bft) 97,83 %
04.08.2020 04:26 13,9 C 11,7 C 12,2 C 89 % 1015,3 hPa 0,0 l/m 0 min 0 min 0 W/m 0,0 km/h (0 Bft) 100,00 %
04.08.2020 04:28 13,9 C 11,7 C 12,2 C 89 % 1015,3 hPa 0,0 l/m 0 min 0 min 0 W/m 0,0 km/h (0 Bft) 100,00 %
04.08.2020 04:30 13,8 C 11,7 C 12,2 C 89 % 1015,3 hPa 0,0 l/m 0 min 0 min 0 W/m 0,0 km/h (0 Bft) 100,00 %
04.08.2020 04:32 13,8 C 11,7 C 12,2 C 89 % 1015,3 hPa 0,0 l/m 0 min 0 min 0 W/m 0,0 km/h (0 Bft) 95,74 %
04.08.2020 04:34 13,8 C 11,7 C 12,2 C 89 % 1015,3 hPa 0,0 l/m 0 min 0 min 0 W/m 0,0 km/h (0 Bft) 95,74 %
04.08.2020 04:36 13,7 C 11,7 C 12,2 C 89 % 1015,3 hPa 0,0 l/m 0 min 0 min 0 W/m 0,0 km/h (0 Bft) 100,00 %
04.08.2020 04:38 13,7 C 11,7 C 12,2 C 89 % 1015,3 hPa 0,0 l/m 0 min 0 min 0 W/m 0,0 km/h (0 Bft) 100,00 %
04.08.2020 04:40 13,7 C 11,7 C 12,2 C 89 % 1015,4 hPa 0,0 l/m 0 min 0 min 0 W/m 3,2 km/h (1 Bft) 100,00 %
04.08.2020 04:42 13,7 C 11,7 C 12,2 C 90 % 1015,4 hPa 0,0 l/m 0 min 0 min 0 W/m 3,2 km/h (1 Bft) 100,00 %
04.08.2020 04:44 13,6 C 11,7 C 12,2 C 90 % 1015,4 hPa 0,0 l/m 0 min 0 min 0 W/m 0,0 km/h (0 Bft) 100,00 %
04.08.2020 04:46 13,6 C 11,7 C 11,7 C 90 % 1015,4 hPa 0,0 l/m 0 min 0 min 0 W/m 3,2 km/h (1 Bft) 100,00 %
04.08.2020 04:48 13,6 C 11,7 C 11,7 C 90 % 1015,3 hPa 0,0 l/m 0 min 0 min 0 W/m 0,0 km/h (0 Bft) 100,00 %
04.08.2020 04:50 13,6 C 11,7 C 11,7 C 90 % 1015,3 hPa 0,0 l/m 0 min 0 min 0 W/m 0,0 km/h (0 Bft) 100,00 %
04.08.2020 04:52 13,5 C 11,7 C 11,7 C 90 % 1015,4 hPa 0,0 l/m 0 min 0 min 0 W/m 0,0 km/h (0 Bft) 100,00 %
04.08.2020 04:54 13,5 C 11,7 C 11,7 C 90 % 1015,4 hPa 0,0 l/m 0 min 0 min 0 W/m 0,0 km/h (0 Bft) 100,00 %
04.08.2020 04:56 13,4 C 11,7 C 11,7 C 90 % 1015,4 hPa 0,0 l/m 0 min 0 min 0 W/m 0,0 km/h (0 Bft) 100,00 %
04.08.2020 04:58 13,4 C 11,7 C 11,7 C 90 % 1015,4 hPa 0,0 l/m 0 min 0 min 0 W/m 0,0 km/h (0 Bft) 97,83 %
04.08.2020 05:00 13,4 C 11,7 C 11,7 C 90 % 1015,4 hPa 0,0 l/m 0 min 0 min 0 W/m 0,0 km/h (0 Bft) 100,00 %
04.08.2020 05:02 13,3 C 11,1 C 11,7 C 90 % 1015,5 hPa 0,0 l/m 0 min 0 min 0 W/m 0,0 km/h (0 Bft) 100,00 %
04.08.2020 05:04 13,3 C 11,1 C 11,7 C 90 % 1015,5 hPa 0,0 l/m 0 min 0 min 0 W/m 0,0 km/h (0 Bft) 100,00 %
04.08.2020 05:06 13,3 C 11,1 C 11,7 C 90 % 1015,5 hPa 0,0 l/m 0 min 0 min 0 W/m 0,0 km/h (0 Bft) 97,87 %
04.08.2020 05:08 13,3 C 11,1 C 11,7 C 90 % 1015,5 hPa 0,0 l/m 0 min 0 min 0 W/m 3,2 km/h (1 Bft) 100,00 %
04.08.2020 05:10 13,2 C 11,1 C 11,7 C 90 % 1015,5 hPa 0,0 l/m 0 min 0 min 0 W/m 0,0 km/h (0 Bft) 100,00 %
04.08.2020 05:12 13,2 C 11,1 C 11,7 C 90 % 1015,5 hPa 0,0 l/m 0 min 0 min 0 W/m 0,0 km/h (0 Bft) 97,87 %
04.08.2020 05:14 13,2 C 11,1 C 11,7 C 90 % 1015,5 hPa 0,0 l/m 0 min 0 min 0 W/m 0,0 km/h (0 Bft) 97,87 %
04.08.2020 05:16 13,1 C 11,1 C 11,7 C 90 % 1015,6 hPa 0,0 l/m 0 min 0 min 0 W/m 0,0 km/h (0 Bft) 95,74 %
04.08.2020 05:18 13,1 C 11,1 C 11,7 C 90 % 1015,6 hPa 0,0 l/m 0 min 0 min 0 W/m 3,2 km/h (1 Bft) 97,87 %
04.08.2020 05:20 13,1 C 11,1 C 11,7 C 91 % 1015,6 hPa 0,0 l/m 0 min 0 min 0 W/m 0,0 km/h (0 Bft) 97,87 %
04.08.2020 05:22 13,1 C 11,1 C 11,7 C 91 % 1015,7 hPa 0,0 l/m 0 min 0 min 0 W/m 3,2 km/h (1 Bft) 97,83 %
04.08.2020 05:24 13,1 C 11,1 C 11,7 C 91 % 1015,7 hPa 0,0 l/m 0 min 0 min 0 W/m 0,0 km/h (0 Bft) 97,87 %
04.08.2020 05:26 13,0 C 11,1 C 11,7 C 91 % 1015,7 hPa 0,0 l/m 0 min 0 min 0 W/m 0,0 km/h (0 Bft) 97,87 %
04.08.2020 05:28 13,0 C 11,1 C 11,7 C 91 % 1015,7 hPa 0,0 l/m 0 min 0 min 0 W/m 0,0 km/h (0 Bft) 97,87 %
04.08.2020 05:30 13,0 C 11,1 C 11,7 C 91 % 1015,7 hPa 0,0 l/m 0 min 0 min 0 W/m 0,0 km/h (0 Bft) 97,87 %
04.08.2020 05:32 12,9 C 11,1 C 11,7 C 91 % 1015,7 hPa 0,0 l/m 0 min 0 min 0 W/m 0,0 km/h (0 Bft) 97,87 %
04.08.2020 05:34 12,9 C 11,1 C 11,7 C 91 % 1015,8 hPa 0,0 l/m 0 min 0 min 0 W/m 3,2 km/h (1 Bft) 97,83 %
04.08.2020 05:36 12,9 C 11,1 C 11,7 C 91 % 1015,8 hPa 0,0 l/m 0 min 0 min 0 W/m 0,0 km/h (0 Bft) 97,87 %
04.08.2020 05:38 12,9 C 11,1 C 11,7 C 91 % 1015,8 hPa 0,0 l/m 0 min 0 min 0 W/m 0,0 km/h (0 Bft) 95,74 %
04.08.2020 05:40 12,8 C 11,1 C 11,7 C 91 % 1015,8 hPa 0,0 l/m 0 min 0 min 0 W/m 0,0 km/h (0 Bft) 97,87 %
04.08.2020 05:42 12,8 C 11,1 C 11,1 C 91 % 1015,8 hPa 0,0 l/m 0 min 0 min 0 W/m 0,0 km/h (0 Bft) 95,74 %
04.08.2020 05:44 12,8 C 11,1 C 11,1 C 91 % 1015,8 hPa 0,0 l/m 0 min 0 min 0 W/m 0,0 km/h (0 Bft) 97,83 %
04.08.2020 05:46 12,8 C 11,1 C 11,1 C 91 % 1015,9 hPa 0,0 l/m 0 min 0 min 0 W/m 3,2 km/h (1 Bft) 97,87 %
04.08.2020 05:48 12,8 C 11,1 C 11,1 C 91 % 1015,8 hPa 0,0 l/m 0 min 0 min 0 W/m 0,0 km/h (0 Bft) 95,74 %
04.08.2020 05:50 12,8 C 11,1 C 11,1 C 91 % 1015,8 hPa 0,0 l/m 0 min 0 min 0 W/m 0,0 km/h (0 Bft) 97,87 %
04.08.2020 05:52 12,7 C 11,1 C 11,1 C 91 % 1015,8 hPa 0,0 l/m 0 min 0 min 0 W/m 0,0 km/h (0 Bft) 97,87 %
04.08.2020 05:54 12,7 C 11,1 C 11,1 C 91 % 1015,8 hPa 0,0 l/m 0 min 0 min 0 W/m 0,0 km/h (0 Bft) 97,87 %
04.08.2020 05:56 12,7 C 11,1 C 11,1 C 91 % 1015,8 hPa 0,0 l/m 0 min 0 min 0 W/m 0,0 km/h (0 Bft) 95,65 %
04.08.2020 05:58 12,7 C 11,1 C 11,1 C 91 % 1015,8 hPa 0,0 l/m 0 min 0 min 0 W/m 0,0 km/h (0 Bft) 93,62 %
04.08.2020 06:00 12,7 C 11,1 C 11,1 C 91 % 1015,9 hPa 0,0 l/m 0 min 0 min 0 W/m 0,0 km/h (0 Bft) 95,74 %
04.08.2020 06:02 12,6 C 11,1 C 11,1 C 91 % 1015,8 hPa 0,0 l/m 0 min 0 min 0 W/m 0,0 km/h (0 Bft) 95,74 %
04.08.2020 06:04 12,6 C 10,6 C 11,1 C 91 % 1015,8 hPa 0,0 l/m 0 min 0 min 0 W/m 0,0 km/h (0 Bft) 95,74 %
04.08.2020 06:08 12,6 C 10,6 C 11,1 C 91 % 1015,8 hPa 0,0 l/m 0 min 0 min 0 W/m 0,0 km/h (0 Bft) 94,62 %
04.08.2020 06:10 12,6 C 11,1 C 11,1 C 92 % 1015,8 hPa 0,0 l/m 0 min 0 min 0 W/m 0,0 km/h (0 Bft) 95,74 %
04.08.2020 06:12 12,6 C 11,1 C 11,1 C 92 % 1015,8 hPa 0,0 l/m 0 min 0 min 4 W/m 3,2 km/h (1 Bft) 95,74 %
04.08.2020 06:14 12,5 C 11,1 C 11,1 C 92 % 1015,8 hPa 0,0 l/m 0 min 0 min 5 W/m 0,0 km/h (0 Bft) 95,74 %
04.08.2020 06:16 12,5 C 11,1 C 11,1 C 92 % 1015,9 hPa 0,0 l/m 0 min 0 min 5 W/m 0,0 km/h (0 Bft) 95,74 %
04.08.2020 06:18 12,5 C 11,1 C 11,1 C 92 % 1015,9 hPa 0,0 l/m 0 min 0 min 6 W/m 0,0 km/h (0 Bft) 91,49 %
04.08.2020 06:20 12,4 C 11,1 C 11,1 C 92 % 1015,8 hPa 0,0 l/m 0 min 0 min 7 W/m 3,2 km/h (1 Bft) 95,65 %
04.08.2020 06:22 12,4 C 11,1 C 11,1 C 92 % 1015,9 hPa 0,0 l/m 0 min 0 min 7 W/m 0,0 km/h (0 Bft) 93,62 %
04.08.2020 06:24 12,4 C 11,1 C 11,1 C 92 % 1015,9 hPa 0,0 l/m 0 min 0 min 9 W/m 0,0 km/h (0 Bft) 95,74 %
04.08.2020 06:26 12,4 C 11,1 C 11,1 C 92 % 1015,9 hPa 0,0 l/m 0 min 0 min 10 W/m 0,0 km/h (0 Bft) 95,74 %
04.08.2020 06:28 12,4 C 11,1 C 11,1 C 92 % 1015,9 hPa 0,0 l/m 0 min 0 min 11 W/m 0,0 km/h (0 Bft) 95,74 %
04.08.2020 06:30 12,4 C 11,1 C 11,1 C 92 % 1015,9 hPa 0,0 l/m 0 min 0 min 11 W/m 0,0 km/h (0 Bft) 95,74 %
04.08.2020 06:32 12,3 C 11,1 C 11,1 C 92 % 1016,0 hPa 0,0 l/m 0 min 0 min 12 W/m 0,0 km/h (0 Bft) 100,00 %
04.08.2020 06:34 12,3 C 11,1 C 11,1 C 92 % 1015,9 hPa 0,0 l/m 0 min 0 min 12 W/m 3,2 km/h (1 Bft) 97,87 %
04.08.2020 06:36 12,3 C 11,1 C 11,1 C 92 % 1016,0 hPa 0,0 l/m 0 min 0 min 12 W/m 0,0 km/h (0 Bft) 95,74 %
04.08.2020 06:38 12,3 C 11,1 C 11,1 C 92 % 1016,0 hPa 0,0 l/m 0 min 0 min 13 W/m 3,2 km/h (1 Bft) 95,74 %
04.08.2020 06:40 12,3 C 11,1 C 11,1 C 92 % 1015,9 hPa 0,0 l/m 0 min 0 min 14 W/m 0,0 km/h (0 Bft) 95,74 %
04.08.2020 06:42 12,3 C 11,1 C 11,1 C 92 % 1016,0 hPa 0,0 l/m 0 min 0 min 14 W/m 0,0 km/h (0 Bft) 97,83 %
04.08.2020 06:44 12,3 C 11,1 C 11,1 C 93 % 1016,1 hPa 0,0 l/m 0 min 0 min 16 W/m 0,0 km/h (0 Bft) 95,74 %
04.08.2020 06:46 12,3 C 11,1 C 11,1 C 93 % 1016,0 hPa 0,0 l/m 0 min 0 min 16 W/m 0,0 km/h (0 Bft) 95,74 %
04.08.2020 06:48 12,3 C 11,1 C 11,1 C 93 % 1016,1 hPa 0,0 l/m 0 min 0 min 18 W/m 0,0 km/h (0 Bft) 95,74 %
04.08.2020 06:50 12,3 C 11,7 C 11,7 C 93 % 1016,1 hPa 0,0 l/m 0 min 0 min 19 W/m 0,0 km/h (0 Bft) 93,62 %
04.08.2020 06:52 12,3 C 11,7 C 11,7 C 93 % 1016,2 hPa 0,0 l/m 0 min 0 min 20 W/m 3,2 km/h (1 Bft) 95,74 %
04.08.2020 06:54 12,3 C 11,7 C 11,7 C 93 % 1016,2 hPa 0,0 l/m 0 min 0 min 23 W/m 3,2 km/h (1 Bft) 95,65 %
04.08.2020 06:56 12,3 C 11,7 C 11,7 C 93 % 1016,3 hPa 0,0 l/m 0 min 0 min 25 W/m 3,2 km/h (1 Bft) 97,87 %
04.08.2020 06:58 12,4 C 11,7 C 11,7 C 93 % 1016,3 hPa 0,0 l/m 0 min 0 min 28 W/m 3,2 km/h (1 Bft) 95,74 %
04.08.2020 07:00 12,4 C 11,7 C 11,7 C 94 % 1016,3 hPa 0,0 l/m 0 min 0 min 32 W/m 3,2 km/h (1 Bft) 97,87 %
04.08.2020 07:02 12,4 C 12,2 C 12,2 C 94 % 1016,3 hPa 0,0 l/m 0 min 0 min 35 W/m 6,4 km/h (2 Bft) 97,87 %
04.08.2020 07:04 12,4 C 12,2 C 12,2 C 94 % 1016,3 hPa 0,0 l/m 0 min 0 min 37 W/m 3,2 km/h (1 Bft) 95,74 %
04.08.2020 07:06 12,5 C 12,2 C 12,2 C 94 % 1016,4 hPa 0,0 l/m 0 min 0 min 38 W/m 3,2 km/h (1 Bft) 95,65 %
04.08.2020 07:08 12,5 C 12,2 C 12,2 C 94 % 1016,4 hPa 0,0 l/m 0 min 0 min 40 W/m 3,2 km/h (1 Bft) 97,87 %
04.08.2020 07:10 12,6 C 12,8 C 12,2 C 94 % 1016,4 hPa 0,0 l/m 0 min 0 min 40 W/m 0,0 km/h (0 Bft) 95,74 %
04.08.2020 07:12 12,6 C 12,8 C 12,8 C 94 % 1016,4 hPa 0,0 l/m 0 min 0 min 39 W/m 3,2 km/h (1 Bft) 95,74 %
04.08.2020 07:14 12,6 C 12,8 C 12,8 C 94 % 1016,4 hPa 0,0 l/m 0 min 0 min 39 W/m 0,0 km/h (0 Bft) 97,87 %
04.08.2020 07:16 12,6 C 12,8 C 12,8 C 95 % 1016,4 hPa 0,0 l/m 0 min 0 min 40 W/m 0,0 km/h (0 Bft) 97,87 %
04.08.2020 07:18 12,7 C 12,8 C 12,8 C 94 % 1016,4 hPa 0,0 l/m 0 min 0 min 41 W/m 3,2 km/h (1 Bft) 97,83 %
04.08.2020 07:20 12,7 C 12,8 C 12,8 C 95 % 1016,4 hPa 0,0 l/m 0 min 0 min 42 W/m 3,2 km/h (1 Bft) 95,74 %
04.08.2020 07:22 12,7 C 12,8 C 12,8 C 95 % 1016,5 hPa 0,0 l/m 0 min 0 min 40 W/m 6,4 km/h (2 Bft) 97,87 %
04.08.2020 07:24 12,8 C 12,8 C 12,8 C 95 % 1016,5 hPa 0,0 l/m 0 min 0 min 40 W/m 6,4 km/h (2 Bft) 97,87 %
04.08.2020 07:26 12,8 C 12,8 C 12,8 C 95 % 1016,5 hPa 0,0 l/m 0 min 0 min 38 W/m 3,2 km/h (1 Bft) 95,74 %
04.08.2020 07:28 12,9 C 12,8 C 12,8 C 95 % 1016,5 hPa 0,0 l/m 0 min 0 min 36 W/m 6,4 km/h (2 Bft) 95,74 %
04.08.2020 07:30 12,9 C 12,8 C 12,8 C 95 % 1016,5 hPa 0,0 l/m 0 min 0 min 33 W/m 3,2 km/h (1 Bft) 100,00 %
04.08.2020 07:32 13,0 C 12,8 C 12,8 C 95 % 1016,5 hPa 0,0 l/m 0 min 0 min 31 W/m 6,4 km/h (2 Bft) 95,74 %
04.08.2020 07:34 13,0 C 12,8 C 12,8 C 95 % 1016,6 hPa 0,0 l/m 0 min 0 min 29 W/m 3,2 km/h (1 Bft) 100,00 %
04.08.2020 07:36 13,1 C 12,8 C 12,8 C 95 % 1016,5 hPa 0,0 l/m 0 min 0 min 29 W/m 3,2 km/h (1 Bft) 100,00 %
04.08.2020 07:38 13,1 C 12,8 C 12,8 C 95 % 1016,6 hPa 0,0 l/m 0 min 0 min 31 W/m 12,9 km/h (3 Bft) 100,00 %
04.08.2020 07:40 13,1 C 12,8 C 12,8 C 95 % 1016,6 hPa 0,0 l/m 0 min 0 min 32 W/m 3,2 km/h (1 Bft) 54,55 %
04.08.2020 07:42 13,1 C 12,8 C 12,8 C 95 % 1016,7 hPa 0,0 l/m 0 min 0 min 35 W/m 3,2 km/h (1 Bft) 97,56 %
04.08.2020 07:44 13,1 C 12,8 C 12,8 C 95 % 1016,7 hPa 0,0 l/m 0 min 0 min 36 W/m 6,4 km/h (2 Bft) 100,00 %
04.08.2020 07:46 13,1 C 12,8 C 12,8 C 96 % 1016,7 hPa 0,0 l/m 0 min 0 min 37 W/m 3,2 km/h (1 Bft) 100,00 %
04.08.2020 07:48 13,2 C 12,8 C 12,8 C 96 % 1016,7 hPa 0,0 l/m 0 min 0 min 35 W/m 3,2 km/h (1 Bft) 100,00 %
04.08.2020 07:50 13,2 C 13,3 C 12,8 C 96 % 1016,7 hPa 0,0 l/m 0 min 0 min 34 W/m 0,0 km/h (0 Bft) 97,87 %
04.08.2020 07:52 13,2 C 13,3 C 12,8 C 96 % 1016,7 hPa 0,0 l/m 0 min 0 min 34 W/m 0,0 km/h (0 Bft) 100,00 %
04.08.2020 07:54 13,2 C 13,3 C 12,8 C 96 % 1016,7 hPa 0,0 l/m 0 min 0 min 37 W/m 0,0 km/h (0 Bft) 97,87 %
04.08.2020 07:56 13,2 C 13,3 C 12,8 C 96 % 1016,8 hPa 0,0 l/m 0 min 0 min 42 W/m 0,0 km/h (0 Bft) 100,00 %
04.08.2020 07:58 13,2 C 13,3 C 12,8 C 96 % 1016,8 hPa 0,0 l/m 0 min 0 min 46 W/m 3,2 km/h (1 Bft) 100,00 %
04.08.2020 08:00 13,2 C 13,3 C 13,3 C 96 % 1016,8 hPa 0,0 l/m 0 min 0 min 49 W/m 3,2 km/h (1 Bft) 100,00 %
04.08.2020 08:02 13,3 C 13,3 C 13,3 C 96 % 1016,8 hPa 0,0 l/m 0 min 0 min 50 W/m 3,2 km/h (1 Bft) 100,00 %
04.08.2020 08:04 13,3 C 13,9 C 13,3 C 96 % 1016,8 hPa 0,0 l/m 0 min 0 min 47 W/m 3,2 km/h (1 Bft) 100,00 %
04.08.2020 08:06 13,3 C 13,9 C 13,3 C 96 % 1016,8 hPa 0,0 l/m 0 min 0 min 46 W/m 3,2 km/h (1 Bft) 95,74 %
04.08.2020 08:08 13,3 C 13,9 C 13,3 C 96 % 1016,8 hPa 0,0 l/m 0 min 0 min 46 W/m 3,2 km/h (1 Bft) 100,00 %
04.08.2020 08:10 13,4 C 13,9 C 13,3 C 96 % 1016,9 hPa 0,0 l/m 0 min 0 min 46 W/m 6,4 km/h (2 Bft) 100,00 %
04.08.2020 08:12 13,4 C 13,9 C 13,3 C 96 % 1016,9 hPa 0,0 l/m 0 min 0 min 47 W/m 3,2 km/h (1 Bft) 95,74 %
04.08.2020 08:14 13,4 C 13,9 C 13,9 C 96 % 1016,9 hPa 0,0 l/m 0 min 0 min 48 W/m 3,2 km/h (1 Bft) 97,87 %
04.08.2020 08:16 13,5 C 13,9 C 13,9 C 96 % 1016,9 hPa 0,0 l/m 0 min 0 min 49 W/m 6,4 km/h (2 Bft) 97,83 %
04.08.2020 08:18 13,6 C 13,9 C 13,9 C 96 % 1017,0 hPa 0,0 l/m 0 min 0 min 51 W/m 3,2 km/h (1 Bft) 97,87 %
04.08.2020 08:20 13,6 C 14,4 C 13,9 C 96 % 1017,0 hPa 0,0 l/m 0 min 0 min 53 W/m 3,2 km/h (1 Bft) 97,87 %
04.08.2020 08:22 13,6 C 14,4 C 13,9 C 96 % 1017,0 hPa 0,0 l/m 0 min 0 min 54 W/m 6,4 km/h (2 Bft) 97,87 %
04.08.2020 08:24 13,7 C 14,4 C 13,9 C 96 % 1017,0 hPa 0,0 l/m 0 min 0 min 56 W/m 3,2 km/h (1 Bft) 97,87 %
04.08.2020 08:26 13,7 C 14,4 C 13,9 C 96 % 1017,0 hPa 0,0 l/m 0 min 0 min 56 W/m 3,2 km/h (1 Bft) 97,87 %
04.08.2020 08:28 13,8 C 14,4 C 13,9 C 96 % 1017,1 hPa 0,0 l/m 0 min 0 min 56 W/m 9,7 km/h (2 Bft) 97,83 %
04.08.2020 08:30 13,8 C 15,6 C 13,9 C 96 % 1017,1 hPa 0,0 l/m 0 min 0 min 58 W/m 12,9 km/h (3 Bft) 97,87 %
04.08.2020 08:32 13,9 C 17,2 C 14,4 C 96 % 1017,1 hPa 0,0 l/m 0 min 0 min 62 W/m 6,4 km/h (2 Bft) 97,87 %
04.08.2020 08:34 13,9 C 18,9 C 14,4 C 96 % 1017,1 hPa 0,0 l/m 0 min 0 min 69 W/m 6,4 km/h (2 Bft) 97,87 %
04.08.2020 08:36 14,1 C 20,0 C 14,4 C 96 % 1017,2 hPa 0,0 l/m 0 min 0 min 79 W/m 3,2 km/h (1 Bft) 95,74 %
04.08.2020 08:38 14,1 C 20,6 C 14,4 C 96 % 1017,2 hPa 0,0 l/m 0 min 0 min 91 W/m 6,4 km/h (2 Bft) 97,83 %
04.08.2020 08:40 14,3 C 20,6 C 14,4 C 96 % 1017,2 hPa 0,0 l/m 0 min 0 min 110 W/m 9,7 km/h (2 Bft) 95,74 %
04.08.2020 08:42 14,3 C 21,1 C 15,0 C 97 % 1017,2 hPa 0,0 l/m 0 min 0 min 134 W/m 9,7 km/h (2 Bft) 97,87 %
04.08.2020 08:44 14,4 C 21,1 C 15,0 C 97 % 1017,2 hPa 0,0 l/m 0 min 0 min 160 W/m 9,7 km/h (2 Bft) 97,87 %
04.08.2020 08:46 14,6 C 21,1 C 15,0 C 96 % 1017,2 hPa 0,0 l/m 0 min 0 min 189 W/m 9,7 km/h (2 Bft) 97,87 %
04.08.2020 08:48 14,8 C 21,1 C 15,0 C 97 % 1017,2 hPa 0,0 l/m 2 min 0 min 220 W/m 9,7 km/h (2 Bft) 97,87 %
04.08.2020 08:50 14,9 C 21,7 C 15,6 C 96 % 1017,2 hPa 0,0 l/m 2 min 0 min 246 W/m 6,4 km/h (2 Bft) 95,65 %
04.08.2020 08:52 15,1 C 21,7 C 15,6 C 97 % 1017,3 hPa 0,0 l/m 2 min 0 min 280 W/m 3,2 km/h (1 Bft) 95,74 %
04.08.2020 08:54 15,3 C 22,2 C 15,6 C 96 % 1017,2 hPa 0,0 l/m 2 min 0 min 308 W/m 6,4 km/h (2 Bft) 97,87 %
04.08.2020 08:56 15,4 C 22,2 C 16,1 C 96 % 1017,2 hPa 0,0 l/m 2 min 0 min 333 W/m 6,4 km/h (2 Bft) 95,74 %
04.08.2020 08:58 15,6 C 21,7 C 17,8 C 96 % 1017,2 hPa 0,0 l/m 2 min 0 min 356 W/m 9,7 km/h (2 Bft) 97,87 %
04.08.2020 09:00 15,7 C 22,2 C 20,0 C 96 % 1017,2 hPa 0,0 l/m 2 min 0 min 372 W/m 6,4 km/h (2 Bft) 97,87 %
04.08.2020 09:02 15,9 C 22,8 C 19,4 C 95 % 1017,2 hPa 0,0 l/m 2 min 0 min 387 W/m 6,4 km/h (2 Bft) 97,83 %
04.08.2020 09:04 16,1 C 22,8 C 19,4 C 95 % 1017,2 hPa 0,0 l/m 2 min 0 min 394 W/m 12,9 km/h (3 Bft) 95,74 %
04.08.2020 09:06 16,3 C 22,8 C 18,9 C 94 % 1017,2 hPa 0,0 l/m 2 min 0 min 401 W/m 6,4 km/h (2 Bft) 95,74 %
04.08.2020 09:09 16,6 C 22,8 C 21,7 C 93 % 1017,3 hPa 0,0 l/m 3 min 0 min 412 W/m 12,9 km/h (3 Bft) 95,71 %
04.08.2020 09:10 16,7 C 22,8 C 22,8 C 92 % 1017,3 hPa 0,0 l/m 1 min 0 min 413 W/m 6,4 km/h (2 Bft) 91,67 %
04.08.2020 09:12 16,9 C 23,3 C 25,0 C 92 % 1017,3 hPa 0,0 l/m 2 min 0 min 414 W/m 6,4 km/h (2 Bft) 95,74 %
04.08.2020 09:14 17,2 C 23,9 C 27,2 C 91 % 1017,3 hPa 0,0 l/m 2 min 0 min 421 W/m 6,4 km/h (2 Bft) 93,62 %
04.08.2020 09:16 17,3 C 23,9 C 27,8 C 89 % 1017,3 hPa 0,0 l/m 2 min 0 min 428 W/m 6,4 km/h (2 Bft) 91,49 %
04.08.2020 09:18 17,6 C 23,9 C 28,9 C 88 % 1017,3 hPa 0,0 l/m 2 min 0 min 425 W/m 6,4 km/h (2 Bft) 93,48 %
04.08.2020 09:20 17,7 C 23,9 C 28,3 C 87 % 1017,3 hPa 0,0 l/m 2 min 0 min 399 W/m 6,4 km/h (2 Bft) 95,74 %
04.08.2020 09:22 17,9 C 23,9 C 28,3 C 86 % 1017,4 hPa 0,0 l/m 2 min 0 min 429 W/m 6,4 km/h (2 Bft) 95,74 %
04.08.2020 09:24 18,1 C 23,9 C 28,9 C 85 % 1017,3 hPa 0,0 l/m 2 min 0 min 443 W/m 9,7 km/h (2 Bft) 95,74 %
04.08.2020 09:26 18,3 C 23,9 C 29,4 C 83 % 1017,4 hPa 0,0 l/m 2 min 0 min 463 W/m 3,2 km/h (1 Bft) 94,83 %
04.08.2020 09:28 18,5 C 24,4 C 30,0 C 82 % 1017,3 hPa 0,0 l/m 2 min 0 min 477 W/m 6,4 km/h (2 Bft) 95,74 %
04.08.2020 09:30 18,6 C 23,3 C 28,3 C 81 % 1017,4 hPa 0,0 l/m 2 min 0 min 468 W/m 6,4 km/h (2 Bft) 94,29 %
04.08.2020 09:32 18,7 C 23,3 C 28,3 C 80 % 1017,4 hPa 0,0 l/m 2 min 0 min 468 W/m 6,4 km/h (2 Bft) 95,74 %
04.08.2020 09:34 18,9 C 23,9 C 30,0 C 81 % 1017,4 hPa 0,0 l/m 2 min 0 min 532 W/m 6,4 km/h (2 Bft) 95,74 %
04.08.2020 09:36 19,0 C 23,9 C 29,4 C 81 % 1017,4 hPa 0,0 l/m 2 min 0 min 538 W/m 6,4 km/h (2 Bft) 93,62 %
04.08.2020 09:38 19,1 C 24,4 C 30,0 C 80 % 1017,4 hPa 0,0 l/m 2 min 0 min 545 W/m 6,4 km/h (2 Bft) 94,83 %
04.08.2020 09:40 19,2 C 23,3 C 27,8 C 80 % 1017,5 hPa 0,0 l/m 2 min 0 min 557 W/m 6,4 km/h (2 Bft) 95,74 %
04.08.2020 09:42 19,3 C 20,6 C 24,4 C 79 % 1017,5 hPa 0,0 l/m 0 min 0 min 245 W/m 9,7 km/h (2 Bft) 97,14 %
04.08.2020 09:44 19,2 C 19,4 C 22,8 C 77 % 1017,6 hPa 0,0 l/m 0 min 0 min 96 W/m 6,4 km/h (2 Bft) 94,92 %
04.08.2020 09:46 19,2 C 18,9 C 21,1 C 77 % 1017,6 hPa 0,0 l/m 0 min 0 min 90 W/m 6,4 km/h (2 Bft) 97,14 %
04.08.2020 09:48 19,1 C 18,3 C 20,0 C 77 % 1017,6 hPa 0,0 l/m 0 min 0 min 89 W/m 3,2 km/h (1 Bft) 93,22 %
04.08.2020 09:50 19,1 C 17,8 C 19,4 C 77 % 1017,6 hPa 0,0 l/m 0 min 0 min 95 W/m 6,4 km/h (2 Bft) 97,14 %
04.08.2020 09:52 19,0 C 18,3 C 18,9 C 77 % 1017,6 hPa 0,0 l/m 0 min 0 min 129 W/m 3,2 km/h (1 Bft) 93,48 %
04.08.2020 09:54 18,9 C 20,0 C 21,7 C 77 % 1017,6 hPa 0,0 l/m 2 min 0 min 286 W/m 6,4 km/h (2 Bft) 97,87 %
04.08.2020 09:56 18,9 C 21,1 C 22,8 C 78 % 1017,6 hPa 0,0 l/m 2 min 0 min 606 W/m 3,2 km/h (1 Bft) 97,87 %
04.08.2020 09:58 19,0 C 21,7 C 24,4 C 79 % 1017,6 hPa 0,0 l/m 2 min 0 min 581 W/m 6,4 km/h (2 Bft) 100,00 %
04.08.2020 10:00 19,1 C 21,1 C 23,3 C 79 % 1017,5 hPa 0,0 l/m 0 min 0 min 155 W/m 9,7 km/h (2 Bft) 100,00 %
04.08.2020 10:02 19,0 C 20,6 C 22,8 C 78 % 1017,5 hPa 0,0 l/m 0 min 0 min 149 W/m 6,4 km/h (2 Bft) 100,00 %
04.08.2020 10:04 19,0 C 22,2 C 25,6 C 78 % 1017,5 hPa 0,0 l/m 2 min 0 min 399 W/m 6,4 km/h (2 Bft) 97,83 %
04.08.2020 10:06 19,1 C 23,3 C 27,8 C 78 % 1017,5 hPa 0,0 l/m 2 min 0 min 598 W/m 9,7 km/h (2 Bft) 97,87 %
04.08.2020 10:08 19,1 C 24,4 C 28,9 C 78 % 1017,5 hPa 0,0 l/m 2 min 0 min 598 W/m 9,7 km/h (2 Bft) 97,87 %
04.08.2020 10:10 19,2 C 24,4 C 30,0 C 78 % 1017,4 hPa 0,0 l/m 2 min 0 min 607 W/m 12,9 km/h (3 Bft) 100,00 %
04.08.2020 10:12 19,3 C 24,4 C 30,0 C 77 % 1017,4 hPa 0,0 l/m 2 min 0 min 613 W/m 12,9 km/h (3 Bft) 97,87 %
04.08.2020 10:14 19,4 C 25,0 C 30,6 C 77 % 1017,3 hPa 0,0 l/m 2 min 0 min 623 W/m 6,4 km/h (2 Bft) 100,00 %
04.08.2020 10:16 19,4 C 24,4 C 28,9 C 76 % 1017,3 hPa 0,0 l/m 2 min 0 min 638 W/m 6,4 km/h (2 Bft) 100,00 %
04.08.2020 10:18 19,6 C 25,0 C 30,6 C 78 % 1017,3 hPa 0,0 l/m 2 min 0 min 656 W/m 6,4 km/h (2 Bft) 100,00 %
04.08.2020 10:20 19,7 C 25,6 C 31,1 C 77 % 1017,3 hPa 0,0 l/m 2 min 0 min 680 W/m 9,7 km/h (2 Bft) 100,00 %
04.08.2020 10:22 19,8 C 26,1 C 31,1 C 76 % 1017,3 hPa 0,0 l/m 2 min 0 min 686 W/m 9,7 km/h (2 Bft) 100,00 %
04.08.2020 10:24 20,0 C 26,7 C 31,7 C 75 % 1017,3 hPa 0,0 l/m 2 min 0 min 693 W/m 9,7 km/h (2 Bft) 100,00 %
04.08.2020 10:26 20,1 C 27,2 C 32,8 C 74 % 1017,3 hPa 0,0 l/m 2 min 0 min 697 W/m 6,4 km/h (2 Bft) 100,00 %
04.08.2020 10:28 20,3 C 26,1 C 31,7 C 73 % 1017,3 hPa 0,0 l/m 2 min 0 min 701 W/m 12,9 km/h (3 Bft) 100,00 %
04.08.2020 10:30 20,3 C 26,1 C 31,1 C 72 % 1017,3 hPa 0,0 l/m 2 min 0 min 718 W/m 6,4 km/h (2 Bft) 100,00 %
04.08.2020 10:32 20,5 C 26,1 C 31,7 C 73 % 1017,3 hPa 0,0 l/m 2 min 0 min 734 W/m 9,7 km/h (2 Bft) 100,00 %
04.08.2020 10:34 20,7 C 27,2 C 32,2 C 73 % 1017,2 hPa 0,0 l/m 2 min 0 min 721 W/m 6,4 km/h (2 Bft) 100,00 %
04.08.2020 10:36 20,8 C 26,7 C 32,2 C 71 % 1017,2 hPa 0,0 l/m 2 min 0 min 761 W/m 12,9 km/h (3 Bft) 100,00 %
04.08.2020 10:38 21,1 C 27,8 C 33,3 C 72 % 1017,2 hPa 0,0 l/m 2 min 0 min 752 W/m 9,7 km/h (2 Bft) 100,00 %
04.08.2020 10:40 21,2 C 27,2 C 33,9 C 71 % 1017,2 hPa 0,0 l/m 2 min 0 min 767 W/m 6,4 km/h (2 Bft) 100,00 %
04.08.2020 10:42 21,3 C 24,4 C 29,4 C 68 % 1017,3 hPa 0,0 l/m 2 min 0 min 345 W/m 9,7 km/h (2 Bft) 97,87 %
04.08.2020 10:44 21,3 C 24,4 C 28,3 C 67 % 1017,3 hPa 0,0 l/m 0 min 0 min 219 W/m 9,7 km/h (2 Bft) 100,00 %
04.08.2020 10:46 21,4 C 22,8 C 25,6 C 68 % 1017,3 hPa 0,0 l/m 0 min 0 min 189 W/m 6,4 km/h (2 Bft) 100,00 %
04.08.2020 10:48 21,3 C 21,7 C 24,4 C 69 % 1017,3 hPa 0,0 l/m 0 min 0 min 135 W/m 6,4 km/h (2 Bft) 100,00 %
04.08.2020 10:50 21,3 C 20,6 C 22,8 C 68 % 1017,3 hPa 0,0 l/m 0 min 0 min 115 W/m 12,9 km/h (3 Bft) 100,00 %
04.08.2020 10:52 21,1 C 20,6 C 22,8 C 68 % 1017,3 hPa 0,0 l/m 0 min 0 min 149 W/m 6,4 km/h (2 Bft) 100,00 %
04.08.2020 10:54 21,1 C 21,7 C 23,3 C 68 % 1017,3 hPa 0,0 l/m 0 min 0 min 191 W/m 6,4 km/h (2 Bft) 100,00 %
04.08.2020 10:56 21,0 C 23,3 C 23,9 C 68 % 1017,3 hPa 0,0 l/m 2 min 0 min 482 W/m 9,7 km/h (2 Bft) 100,00 %
04.08.2020 10:58 21,1 C 26,1 C 24,4 C 69 % 1017,3 hPa 0,0 l/m 2 min 0 min 781 W/m 6,4 km/h (2 Bft) 100,00 %
04.08.2020 11:00 21,1 C 26,7 C 25,6 C 69 % 1017,3 hPa 0,0 l/m 2 min 0 min 801 W/m 6,4 km/h (2 Bft) 97,87 %
04.08.2020 11:02 21,2 C 27,8 C 26,1 C 70 % 1017,3 hPa 0,0 l/m 2 min 0 min 827 W/m 3,2 km/h (1 Bft) 97,83 %
04.08.2020 11:04 21,4 C 27,8 C 26,1 C 69 % 1017,3 hPa 0,0 l/m 2 min 0 min 861 W/m 9,7 km/h (2 Bft) 97,87 %
04.08.2020 11:06 21,6 C 27,8 C 25,6 C 68 % 1017,4 hPa 0,0 l/m 2 min 0 min 809 W/m 9,7 km/h (2 Bft) 97,87 %
04.08.2020 11:08 21,6 C 25,6 C 23,9 C 67 % 1017,4 hPa 0,0 l/m 2 min 0 min 463 W/m 9,7 km/h (2 Bft) 100,00 %
04.08.2020 11:10 21,7 C 25,0 C 23,3 C 67 % 1017,4 hPa 0,0 l/m 0 min 0 min 238 W/m 6,4 km/h (2 Bft) 100,00 %
04.08.2020 11:12 21,7 C 26,7 C 22,8 C 67 % 1017,5 hPa 0,0 l/m 2 min 0 min 674 W/m 9,7 km/h (2 Bft) 100,00 %
04.08.2020 11:14 21,8 C 26,7 C 22,2 C 66 % 1017,4 hPa 0,0 l/m 2 min 0 min 798 W/m 6,4 km/h (2 Bft) 100,00 %
04.08.2020 11:16 21,8 C 27,2 C 21,7 C 66 % 1017,4 hPa 0,0 l/m 2 min 0 min 811 W/m 19,3 km/h (3 Bft) 100,00 %
04.08.2020 11:18 21,8 C 25,6 C 21,1 C 65 % 1017,3 hPa 0,0 l/m 2 min 0 min 829 W/m 12,9 km/h (3 Bft) 100,00 %
04.08.2020 11:20 21,8 C 25,0 C 21,1 C 65 % 1017,3 hPa 0,0 l/m 0 min 0 min 185 W/m 6,4 km/h (2 Bft) 100,00 %
04.08.2020 11:22 21,9 C 26,7 C 21,7 C 66 % 1017,3 hPa 0,0 l/m 2 min 0 min 358 W/m 6,4 km/h (2 Bft) 100,00 %
04.08.2020 11:24 22,0 C 27,8 C 22,2 C 66 % 1017,4 hPa 0,0 l/m 2 min 0 min 885 W/m 6,4 km/h (2 Bft) 100,00 %
04.08.2020 11:26 22,1 C 27,8 C 22,2 C 65 % 1017,3 hPa 0,0 l/m 2 min 0 min 883 W/m 12,9 km/h (3 Bft) 100,00 %
04.08.2020 11:28 22,2 C 27,8 C 22,2 C 63 % 1017,4 hPa 0,0 l/m 2 min 0 min 872 W/m 12,9 km/h (3 Bft) 100,00 %
04.08.2020 11:30 22,2 C 28,3 C 22,2 C 64 % 1017,3 hPa 0,0 l/m 2 min 0 min 860 W/m 6,4 km/h (2 Bft) 100,00 %
04.08.2020 11:32 22,3 C 25,6 C 21,1 C 64 % 1017,3 hPa 0,0 l/m 2 min 0 min 780 W/m 12,9 km/h (3 Bft) 100,00 %
04.08.2020 11:34 22,3 C 22,8 C 20,6 C 62 % 1017,3 hPa 0,0 l/m 0 min 0 min 134 W/m 6,4 km/h (2 Bft) 100,00 %
04.08.2020 11:36 22,3 C 23,9 C 20,6 C 62 % 1017,3 hPa 0,0 l/m 0 min 0 min 134 W/m 12,9 km/h (3 Bft) 100,00 %
04.08.2020 11:38 22,3 C 25,6 C 21,1 C 62 % 1017,2 hPa 0,0 l/m 2 min 0 min 833 W/m 12,9 km/h (3 Bft) 100,00 %
04.08.2020 11:40 22,3 C 27,2 C 21,7 C 62 % 1017,3 hPa 0,0 l/m 2 min 0 min 815 W/m 12,9 km/h (3 Bft) 97,87 %
04.08.2020 11:42 22,4 C 27,8 C 21,7 C 62 % 1017,3 hPa 0,0 l/m 2 min 0 min 829 W/m 6,4 km/h (2 Bft) 97,87 %
04.08.2020 11:44 22,4 C 28,9 C 21,7 C 62 % 1017,3 hPa 0,0 l/m 2 min 0 min 831 W/m 12,9 km/h (3 Bft) 97,87 %
04.08.2020 11:46 22,6 C 27,8 C 21,7 C 61 % 1017,3 hPa 0,0 l/m 2 min 0 min 854 W/m 6,4 km/h (2 Bft) 97,87 %
04.08.2020 11:48 22,6 C 26,7 C 21,7 C 61 % 1017,3 hPa 0,0 l/m 2 min 0 min 858 W/m 6,4 km/h (2 Bft) 97,87 %
04.08.2020 11:50 22,6 C 27,8 C 21,7 C 59 % 1017,2 hPa 0,0 l/m 2 min 0 min 884 W/m 12,9 km/h (3 Bft) 97,83 %
04.08.2020 11:52 22,6 C 25,6 C 21,7 C 58 % 1017,3 hPa 0,0 l/m 2 min 0 min 902 W/m 12,9 km/h (3 Bft) 97,87 %
04.08.2020 11:54 22,6 C 25,0 C 21,1 C 58 % 1017,2 hPa 0,0 l/m 0 min 0 min 234 W/m 6,4 km/h (2 Bft) 95,74 %
04.08.2020 11:56 22,6 C 26,7 C 21,1 C 59 % 1017,2 hPa 0,0 l/m 0 min 0 min 268 W/m 12,9 km/h (3 Bft) 95,74 %
04.08.2020 11:58 22,7 C 28,3 C 21,7 C 59 % 1017,2 hPa 0,0 l/m 2 min 0 min 918 W/m 3,2 km/h (1 Bft) 97,87 %
04.08.2020 12:00 22,7 C 27,8 C 21,7 C 60 % 1017,2 hPa 0,0 l/m 2 min 0 min 925 W/m 6,4 km/h (2 Bft) 95,65 %
04.08.2020 12:02 22,8 C 27,2 C 21,7 C 59 % 1017,2 hPa 0,0 l/m 2 min 0 min 570 W/m 6,4 km/h (2 Bft) 95,74 %
04.08.2020 12:04 22,9 C 28,3 C 21,7 C 59 % 1017,2 hPa 0,0 l/m 2 min 0 min 778 W/m 12,9 km/h (3 Bft) 93,62 %
04.08.2020 12:08 23,1 C 29,4 C 22,2 C 58 % 1017,2 hPa 0,0 l/m 4 min 0 min 913 W/m 6,4 km/h (2 Bft) 95,00 %
04.08.2020 12:10 23,2 C 29,4 C 22,2 C 56 % 1017,3 hPa 0,0 l/m 2 min 0 min 912 W/m 9,7 km/h (2 Bft) 95,65 %
04.08.2020 12:12 23,3 C 29,4 C 22,2 C 56 % 1017,3 hPa 0,0 l/m 2 min 0 min 943 W/m 9,7 km/h (2 Bft) 95,83 %
04.08.2020 12:14 23,4 C 28,9 C 22,2 C 55 % 1017,3 hPa 0,0 l/m 2 min 0 min 984 W/m 12,9 km/h (3 Bft) 95,74 %
04.08.2020 12:16 23,4 C 26,7 C 22,2 C 56 % 1017,3 hPa 0,0 l/m 2 min 0 min 943 W/m 19,3 km/h (3 Bft) 95,74 %
04.08.2020 12:18 23,4 C 24,4 C 22,2 C 56 % 1017,4 hPa 0,0 l/m 2 min 0 min 566 W/m 22,5 km/h (4 Bft) 93,62 %
04.08.2020 12:20 23,3 C 23,9 C 22,2 C 57 % 1017,3 hPa 0,0 l/m 0 min 0 min 216 W/m 6,4 km/h (2 Bft) 93,62 %
04.08.2020 12:22 23,3 C 26,1 C 22,2 C 57 % 1017,3 hPa 0,0 l/m 0 min 0 min 234 W/m 22,5 km/h (4 Bft) 95,65 %
04.08.2020 12:24 23,3 C 27,8 C 22,2 C 58 % 1017,3 hPa 0,0 l/m 2 min 0 min 867 W/m 16,1 km/h (3 Bft) 97,87 %
04.08.2020 12:26 23,4 C 28,9 C 22,2 C 57 % 1017,4 hPa 0,0 l/m 2 min 0 min 906 W/m 6,4 km/h (2 Bft) 97,87 %
04.08.2020 12:28 23,4 C 29,4 C 22,2 C 56 % 1017,3 hPa 0,0 l/m 2 min 0 min 896 W/m 9,7 km/h (2 Bft) 95,74 %
04.08.2020 12:30 23,6 C 30,0 C 22,2 C 57 % 1017,3 hPa 0,0 l/m 2 min 0 min 896 W/m 6,4 km/h (2 Bft) 97,87 %
04.08.2020 12:32 23,6 C 29,4 C 22,2 C 57 % 1017,2 hPa 0,0 l/m 2 min 0 min 900 W/m 12,9 km/h (3 Bft) 97,87 %
04.08.2020 12:34 23,7 C 30,6 C 22,2 C 56 % 1017,3 hPa 0,0 l/m 2 min 0 min 897 W/m 6,4 km/h (2 Bft) 95,65 %
04.08.2020 12:36 23,8 C 29,4 C 22,2 C 54 % 1017,4 hPa 0,0 l/m 2 min 0 min 900 W/m 9,7 km/h (2 Bft) 95,74 %
04.08.2020 12:38 23,9 C 28,9 C 22,2 C 53 % 1017,4 hPa 0,0 l/m 2 min 0 min 904 W/m 12,9 km/h (3 Bft) 95,74 %
04.08.2020 12:40 23,9 C 29,4 C 22,8 C 53 % 1017,4 hPa 0,0 l/m 2 min 0 min 911 W/m 12,9 km/h (3 Bft) 97,87 %
04.08.2020 12:42 24,1 C 30,0 C 22,8 C 52 % 1017,4 hPa 0,0 l/m 2 min 0 min 916 W/m 6,4 km/h (2 Bft) 97,87 %
04.08.2020 12:44 24,1 C 30,0 C 22,2 C 51 % 1017,4 hPa 0,0 l/m 2 min 0 min 929 W/m 16,1 km/h (3 Bft) 97,87 %
04.08.2020 12:46 24,2 C 30,0 C 22,2 C 51 % 1017,3 hPa 0,0 l/m 2 min 0 min 947 W/m 6,4 km/h (2 Bft) 95,65 %
04.08.2020 12:48 24,2 C 28,9 C 22,2 C 49 % 1017,3 hPa 0,0 l/m 2 min 0 min 964 W/m 16,1 km/h (3 Bft) 95,74 %
04.08.2020 12:50 24,2 C 29,4 C 22,2 C 51 % 1017,3 hPa 0,0 l/m 2 min 0 min 972 W/m 9,7 km/h (2 Bft) 97,87 %
04.08.2020 12:52 24,3 C 28,3 C 22,2 C 52 % 1017,4 hPa 0,0 l/m 2 min 0 min 977 W/m 6,4 km/h (2 Bft) 97,87 %
04.08.2020 12:54 24,3 C 28,9 C 22,8 C 51 % 1017,4 hPa 0,0 l/m 2 min 0 min 963 W/m 12,9 km/h (3 Bft) 95,74 %
04.08.2020 12:56 24,4 C 30,0 C 22,8 C 51 % 1017,3 hPa 0,0 l/m 2 min 0 min 974 W/m 12,9 km/h (3 Bft) 93,62 %
04.08.2020 12:58 24,4 C 30,0 C 22,8 C 49 % 1017,4 hPa 0,0 l/m 2 min 0 min 978 W/m 9,7 km/h (2 Bft) 100,00 %
04.08.2020 13:00 24,6 C 30,0 C 23,3 C 48 % 1017,4 hPa 0,0 l/m 2 min 0 min 984 W/m 16,1 km/h (3 Bft) 93,62 %
04.08.2020 13:02 24,6 C 30,6 C 23,3 C 49 % 1017,3 hPa 0,0 l/m 2 min 0 min 1006 W/m 16,1 km/h (3 Bft) 95,74 %
04.08.2020 13:04 24,7 C 30,6 C 23,3 C 50 % 1017,4 hPa 0,0 l/m 2 min 0 min 1020 W/m 16,1 km/h (3 Bft) 97,87 %
04.08.2020 13:06 24,8 C 30,6 C 23,3 C 50 % 1017,3 hPa 0,0 l/m 2 min 0 min 1025 W/m 9,7 km/h (2 Bft) 97,87 %
04.08.2020 13:08 24,8 C 31,1 C 23,3 C 52 % 1017,4 hPa 0,0 l/m 2 min 0 min 1011 W/m 9,7 km/h (2 Bft) 97,83 %
04.08.2020 13:10 24,8 C 31,7 C 23,3 C 51 % 1017,4 hPa 0,0 l/m 2 min 0 min 993 W/m 16,1 km/h (3 Bft) 95,74 %
04.08.2020 13:12 24,9 C 31,1 C 23,3 C 51 % 1017,3 hPa 0,0 l/m 2 min 0 min 972 W/m 12,9 km/h (3 Bft) 97,87 %
04.08.2020 13:14 24,9 C 31,1 C 23,3 C 50 % 1017,3 hPa 0,0 l/m 2 min 0 min 962 W/m 12,9 km/h (3 Bft) 97,87 %
04.08.2020 13:16 24,9 C 31,1 C 23,3 C 50 % 1017,4 hPa 0,0 l/m 2 min 0 min 947 W/m 9,7 km/h (2 Bft) 97,87 %
04.08.2020 13:18 25,0 C 31,1 C 22,8 C 50 % 1017,4 hPa 0,0 l/m 2 min 0 min 945 W/m 9,7 km/h (2 Bft) 95,74 %
04.08.2020 13:20 25,1 C 31,1 C 23,3 C 51 % 1017,4 hPa 0,0 l/m 2 min 0 min 941 W/m 9,7 km/h (2 Bft) 97,83 %
04.08.2020 13:22 25,1 C 30,6 C 23,3 C 48 % 1017,3 hPa 0,0 l/m 2 min 0 min 946 W/m 9,7 km/h (2 Bft) 97,92 %
04.08.2020 13:24 25,2 C 31,1 C 23,3 C 48 % 1017,3 hPa 0,0 l/m 2 min 0 min 959 W/m 6,4 km/h (2 Bft) 97,87 %
04.08.2020 13:26 25,2 C 30,6 C 23,3 C 48 % 1017,4 hPa 0,0 l/m 2 min 0 min 981 W/m 12,9 km/h (3 Bft) 97,87 %
04.08.2020 13:28 25,2 C 30,0 C 23,3 C 49 % 1017,3 hPa 0,0 l/m 2 min 0 min 998 W/m 12,9 km/h (3 Bft) 95,74 %
04.08.2020 13:30 25,2 C 30,0 C 23,3 C 49 % 1017,3 hPa 0,0 l/m 2 min 0 min 1004 W/m 12,9 km/h (3 Bft) 93,62 %
04.08.2020 13:32 25,2 C 30,6 C 23,3 C 49 % 1017,3 hPa 0,0 l/m 2 min 0 min 1002 W/m 12,9 km/h (3 Bft) 97,87 %
04.08.2020 13:34 25,3 C 31,1 C 23,9 C 50 % 1017,3 hPa 0,0 l/m 2 min 0 min 984 W/m 6,4 km/h (2 Bft) 95,74 %
04.08.2020 13:35 25,3 C 30,6 C 23,9 C 49 % 1017,3 hPa 0,0 l/m 1 min 0 min 980 W/m 12,9 km/h (3 Bft) 100,00 %
04.08.2020 13:38 25,4 C 30,0 C 23,9 C 47 % 1017,3 hPa 0,0 l/m 3 min 0 min 968 W/m 6,4 km/h (2 Bft) 97,50 %
04.08.2020 13:40 25,4 C 30,0 C 23,9 C 46 % 1017,3 hPa 0,0 l/m 2 min 0 min 976 W/m 16,1 km/h (3 Bft) 95,74 %
04.08.2020 13:42 25,4 C 29,4 C 23,9 C 46 % 1017,4 hPa 0,0 l/m 2 min 0 min 992 W/m 12,9 km/h (3 Bft) 97,87 %
04.08.2020 13:44 25,3 C 28,9 C 23,3 C 45 % 1017,3 hPa 0,0 l/m 2 min 0 min 1006 W/m 9,7 km/h (2 Bft) 97,87 %
04.08.2020 13:46 25,3 C 29,4 C 23,9 C 46 % 1017,4 hPa 0,0 l/m 2 min 0 min 1029 W/m 12,9 km/h (3 Bft) 97,87 %
04.08.2020 13:48 25,3 C 30,6 C 24,4 C 47 % 1017,4 hPa 0,0 l/m 2 min 0 min 1040 W/m 12,9 km/h (3 Bft) 97,14 %
04.08.2020 13:50 25,3 C 30,0 C 24,4 C 49 % 1017,4 hPa 0,0 l/m 2 min 0 min 1044 W/m 9,7 km/h (2 Bft) 95,74 %
04.08.2020 13:52 25,3 C 29,4 C 24,4 C 48 % 1017,4 hPa 0,0 l/m 2 min 0 min 1044 W/m 9,7 km/h (2 Bft) 97,87 %
04.08.2020 13:54 25,3 C 30,6 C 25,0 C 49 % 1017,3 hPa 0,0 l/m 2 min 0 min 1029 W/m 9,7 km/h (2 Bft) 97,87 %
04.08.2020 13:56 25,3 C 30,6 C 25,6 C 49 % 1017,4 hPa 0,0 l/m 2 min 0 min 992 W/m 9,7 km/h (2 Bft) 97,83 %
04.08.2020 13:58 25,4 C 30,6 C 26,1 C 49 % 1017,4 hPa 0,0 l/m 2 min 0 min 966 W/m 6,4 km/h (2 Bft) 100,00 %
04.08.2020 14:00 25,4 C 31,1 C 27,8 C 49 % 1017,3 hPa 0,0 l/m 2 min 0 min 962 W/m 12,9 km/h (3 Bft) 100,00 %
04.08.2020 14:02 25,6 C 32,2 C 29,4 C 50 % 1017,4 hPa 0,0 l/m 2 min 0 min 949 W/m 6,4 km/h (2 Bft) 100,00 %
04.08.2020 14:04 25,6 C 32,2 C 31,7 C 47 % 1017,4 hPa 0,0 l/m 2 min 0 min 949 W/m 6,4 km/h (2 Bft) 100,00 %
04.08.2020 14:06 25,7 C 31,1 C 33,3 C 48 % 1017,4 hPa 0,0 l/m 2 min 0 min 959 W/m 9,7 km/h (2 Bft) 97,87 %
04.08.2020 14:08 25,8 C 31,7 C 34,4 C 48 % 1017,3 hPa 0,0 l/m 2 min 0 min 986 W/m 6,4 km/h (2 Bft) 100,00 %
04.08.2020 14:10 25,8 C 31,7 C 33,3 C 47 % 1017,3 hPa 0,0 l/m 2 min 0 min 1009 W/m 6,4 km/h (2 Bft) 100,00 %
04.08.2020 14:12 25,9 C 31,7 C 31,1 C 46 % 1017,3 hPa 0,0 l/m 2 min 0 min 1024 W/m 6,4 km/h (2 Bft) 100,00 %
04.08.2020 14:14 25,9 C 30,6 C 30,0 C 45 % 1017,2 hPa 0,0 l/m 2 min 0 min 1030 W/m 16,1 km/h (3 Bft) 100,00 %
04.08.2020 14:16 26,0 C 31,7 C 29,4 C 48 % 1017,4 hPa 0,0 l/m 2 min 0 min 1004 W/m 9,7 km/h (2 Bft) 97,87 %
04.08.2020 14:18 26,1 C 31,7 C 30,6 C 47 % 1017,3 hPa 0,0 l/m 2 min 0 min 965 W/m 9,7 km/h (2 Bft) 97,87 %
04.08.2020 14:20 26,1 C 31,7 C 31,1 C 48 % 1017,4 hPa 0,0 l/m 2 min 0 min 956 W/m 9,7 km/h (2 Bft) 100,00 %
04.08.2020 14:22 26,2 C 31,7 C 30,6 C 47 % 1017,3 hPa 0,0 l/m 2 min 0 min 941 W/m 6,4 km/h (2 Bft) 97,87 %
04.08.2020 14:24 26,2 C 30,0 C 27,8 C 46 % 1017,3 hPa 0,0 l/m 2 min 0 min 937 W/m 12,9 km/h (3 Bft) 98,00 %
04.08.2020 14:26 26,1 C 28,3 C 26,7 C 46 % 1017,3 hPa 0,0 l/m 2 min 0 min 937 W/m 6,4 km/h (2 Bft) 95,65 %
04.08.2020 14:28 26,0 C 27,8 C 25,6 C 46 % 1017,4 hPa 0,0 l/m 0 min 0 min 134 W/m 9,7 km/h (2 Bft) 97,87 %
04.08.2020 14:30 25,9 C 28,3 C 24,4 C 46 % 1017,3 hPa 0,0 l/m 2 min 0 min 754 W/m 12,9 km/h (3 Bft) 97,87 %
04.08.2020 14:32 25,7 C 29,4 C 24,4 C 47 % 1017,2 hPa 0,0 l/m 2 min 0 min 979 W/m 6,4 km/h (2 Bft) 95,74 %
04.08.2020 14:34 25,7 C 30,6 C 24,4 C 48 % 1017,2 hPa 0,0 l/m 2 min 0 min 1019 W/m 9,7 km/h (2 Bft) 97,87 %
04.08.2020 14:36 25,7 C 29,4 C 24,4 C 49 % 1017,2 hPa 0,0 l/m 2 min 0 min 1027 W/m 6,4 km/h (2 Bft) 97,14 %
04.08.2020 14:38 25,7 C 27,2 C 23,9 C 49 % 1017,2 hPa 0,0 l/m 0 min 0 min 270 W/m 3,2 km/h (1 Bft) 97,87 %
04.08.2020 14:40 25,6 C 26,1 C 23,3 C 48 % 1017,2 hPa 0,0 l/m 0 min 0 min 166 W/m 12,9 km/h (3 Bft) 97,87 %
04.08.2020 14:42 25,4 C 24,4 C 22,8 C 47 % 1017,2 hPa 0,0 l/m 0 min 0 min 167 W/m 9,7 km/h (2 Bft) 97,87 %
04.08.2020 14:44 25,2 C 26,7 C 22,8 C 48 % 1017,3 hPa 0,0 l/m 0 min 0 min 208 W/m 9,7 km/h (2 Bft) 97,83 %
04.08.2020 14:46 25,1 C 28,3 C 22,8 C 48 % 1017,3 hPa 0,0 l/m 2 min 0 min 950 W/m 6,4 km/h (2 Bft) 97,87 %
04.08.2020 14:48 25,1 C 29,4 C 23,3 C 49 % 1017,4 hPa 0,0 l/m 2 min 0 min 941 W/m 12,9 km/h (3 Bft) 95,74 %
04.08.2020 14:50 25,1 C 30,0 C 23,3 C 49 % 1017,3 hPa 0,0 l/m 2 min 0 min 943 W/m 6,4 km/h (2 Bft) 97,87 %
04.08.2020 14:52 25,1 C 30,0 C 23,9 C 47 % 1017,3 hPa 0,0 l/m 2 min 0 min 933 W/m 12,9 km/h (3 Bft) 97,87 %
04.08.2020 14:54 25,2 C 30,6 C 23,9 C 49 % 1017,3 hPa 0,0 l/m 2 min 0 min 925 W/m 6,4 km/h (2 Bft) 98,18 %
04.08.2020 14:56 25,2 C 31,1 C 23,9 C 49 % 1017,3 hPa 0,0 l/m 2 min 0 min 920 W/m 9,7 km/h (2 Bft) 97,87 %
04.08.2020 14:58 25,3 C 31,7 C 23,9 C 50 % 1017,3 hPa 0,0 l/m 2 min 0 min 911 W/m 9,7 km/h (2 Bft) 97,73 %
04.08.2020 15:00 25,4 C 31,7 C 23,9 C 47 % 1017,3 hPa 0,0 l/m 2 min 0 min 907 W/m 9,7 km/h (2 Bft) 93,48 %
04.08.2020 15:02 25,5 C 31,1 C 23,9 C 47 % 1017,3 hPa 0,0 l/m 2 min 0 min 895 W/m 6,4 km/h (2 Bft) 98,11 %
04.08.2020 15:04 25,5 C 28,9 C 23,9 C 46 % 1017,4 hPa 0,0 l/m 2 min 0 min 890 W/m 22,5 km/h (4 Bft) 97,73 %
04.08.2020 15:06 25,5 C 29,4 C 23,9 C 47 % 1017,3 hPa 0,0 l/m 2 min 0 min 895 W/m 12,9 km/h (3 Bft) 100,00 %
04.08.2020 15:08 25,5 C 29,4 C 23,3 C 45 % 1017,2 hPa 0,0 l/m 2 min 0 min 902 W/m 12,9 km/h (3 Bft) 100,00 %
04.08.2020 15:10 25,6 C 31,1 C 23,9 C 48 % 1017,3 hPa 0,0 l/m 2 min 0 min 906 W/m 9,7 km/h (2 Bft) 95,74 %
04.08.2020 15:12 25,6 C 30,0 C 23,3 C 45 % 1017,2 hPa 0,0 l/m 2 min 0 min 902 W/m 12,9 km/h (3 Bft) 97,87 %
04.08.2020 15:14 25,6 C 30,6 C 23,9 C 47 % 1017,3 hPa 0,0 l/m 2 min 0 min 893 W/m 6,4 km/h (2 Bft) 100,00 %
04.08.2020 15:16 25,7 C 31,7 C 23,9 C 45 % 1017,3 hPa 0,0 l/m 2 min 0 min 904 W/m 6,4 km/h (2 Bft) 100,00 %
04.08.2020 15:18 25,8 C 31,1 C 23,9 C 44 % 1017,3 hPa 0,0 l/m 2 min 0 min 907 W/m 6,4 km/h (2 Bft) 97,87 %
04.08.2020 15:20 25,8 C 31,7 C 23,9 C 46 % 1017,3 hPa 0,0 l/m 2 min 0 min 905 W/m 9,7 km/h (2 Bft) 100,00 %
04.08.2020 15:22 25,9 C 31,7 C 23,9 C 46 % 1017,2 hPa 0,0 l/m 2 min 0 min 902 W/m 9,7 km/h (2 Bft) 100,00 %
04.08.2020 15:24 25,9 C 30,6 C 23,9 C 45 % 1017,3 hPa 0,0 l/m 2 min 0 min 889 W/m 12,9 km/h (3 Bft) 100,00 %
04.08.2020 15:26 25,9 C 30,6 C 24,4 C 44 % 1017,3 hPa 0,0 l/m 2 min 0 min 880 W/m 16,1 km/h (3 Bft) 100,00 %
04.08.2020 15:28 25,9 C 30,6 C 24,4 C 44 % 1017,3 hPa 0,0 l/m 2 min 0 min 876 W/m 9,7 km/h (2 Bft) 100,00 %
04.08.2020 15:30 25,9 C 29,4 C 24,4 C 42 % 1017,3 hPa 0,0 l/m 2 min 0 min 869 W/m 12,9 km/h (3 Bft) 100,00 %
04.08.2020 15:32 25,9 C 29,4 C 24,4 C 42 % 1017,2 hPa 0,0 l/m 2 min 0 min 862 W/m 12,9 km/h (3 Bft) 97,87 %
04.08.2020 15:34 25,9 C 30,0 C 23,9 C 44 % 1017,2 hPa 0,0 l/m 2 min 0 min 856 W/m 9,7 km/h (2 Bft) 97,83 %
04.08.2020 15:36 25,9 C 30,0 C 23,9 C 43 % 1017,3 hPa 0,0 l/m 2 min 0 min 844 W/m 9,7 km/h (2 Bft) 97,87 %
04.08.2020 15:38 25,9 C 28,9 C 23,9 C 42 % 1017,2 hPa 0,0 l/m 2 min 0 min 843 W/m 12,9 km/h (3 Bft) 97,87 %
04.08.2020 15:40 25,8 C 29,4 C 23,9 C 44 % 1017,2 hPa 0,0 l/m 2 min 0 min 838 W/m 12,9 km/h (3 Bft) 91,49 %
04.08.2020 15:42 25,9 C 30,0 C 23,9 C 44 % 1017,2 hPa 0,0 l/m 2 min 0 min 829 W/m 6,4 km/h (2 Bft) 96,23 %
04.08.2020 15:44 25,9 C 30,0 C 23,9 C 43 % 1017,2 hPa 0,0 l/m 2 min 0 min 838 W/m 6,4 km/h (2 Bft) 97,87 %
04.08.2020 15:46 25,9 C 29,4 C 23,9 C 41 % 1017,2 hPa 0,0 l/m 2 min 0 min 830 W/m 16,1 km/h (3 Bft) 93,48 %
04.08.2020 15:48 25,9 C 30,0 C 23,9 C 43 % 1017,2 hPa 0,0 l/m 2 min 0 min 822 W/m 12,9 km/h (3 Bft) 97,37 %
04.08.2020 15:50 25,9 C 30,6 C 23,9 C 43 % 1017,2 hPa 0,0 l/m 2 min 0 min 821 W/m 6,4 km/h (2 Bft) 93,62 %
04.08.2020 15:52 26,0 C 31,1 C 23,9 C 43 % 1017,2 hPa 0,0 l/m 2 min 0 min 817 W/m 9,7 km/h (2 Bft) 98,00 %
04.08.2020 15:54 26,1 C 30,6 C 23,9 C 42 % 1017,1 hPa 0,0 l/m 2 min 0 min 814 W/m 6,4 km/h (2 Bft) 97,87 %
04.08.2020 15:56 26,1 C 30,0 C 24,4 C 45 % 1017,2 hPa 0,0 l/m 2 min 0 min 814 W/m 12,9 km/h (3 Bft) 97,87 %
04.08.2020 15:58 26,1 C 30,0 C 24,4 C 43 % 1017,2 hPa 0,0 l/m 2 min 0 min 815 W/m 6,4 km/h (2 Bft) 95,65 %
04.08.2020 16:00 26,1 C 30,0 C 25,0 C 42 % 1017,2 hPa 0,0 l/m 2 min 0 min 811 W/m 16,1 km/h (3 Bft) 91,49 %
04.08.2020 16:02 26,1 C 29,4 C 25,0 C 41 % 1017,1 hPa 0,0 l/m 2 min 0 min 807 W/m 19,3 km/h (3 Bft) 96,23 %
04.08.2020 16:04 26,1 C 28,9 C 24,4 C 40 % 1017,2 hPa 0,0 l/m 2 min 0 min 808 W/m 16,1 km/h (3 Bft) 95,74 %
04.08.2020 16:06 26,0 C 29,4 C 23,9 C 41 % 1017,1 hPa 0,0 l/m 2 min 0 min 803 W/m 6,4 km/h (2 Bft) 97,37 %
04.08.2020 16:08 26,0 C 30,0 C 23,9 C 41 % 1017,1 hPa 0,0 l/m 2 min 0 min 800 W/m 6,4 km/h (2 Bft) 95,74 %
04.08.2020 16:10 26,0 C 30,6 C 23,9 C 42 % 1017,0 hPa 0,0 l/m 2 min 0 min 790 W/m 9,7 km/h (2 Bft) 95,65 %
04.08.2020 16:12 26,1 C 30,6 C 23,9 C 43 % 1017,0 hPa 0,0 l/m 2 min 0 min 784 W/m 6,4 km/h (2 Bft) 95,74 %
04.08.2020 16:14 26,1 C 30,6 C 23,9 C 42 % 1017,0 hPa 0,0 l/m 2 min 0 min 781 W/m 9,7 km/h (2 Bft) 95,74 %
04.08.2020 16:16 26,2 C 30,6 C 23,3 C 43 % 1017,0 hPa 0,0 l/m 2 min 0 min 776 W/m 12,9 km/h (3 Bft) 95,83 %
04.08.2020 16:18 26,2 C 29,4 C 23,9 C 41 % 1017,1 hPa 0,0 l/m 2 min 0 min 766 W/m 12,9 km/h (3 Bft) 93,62 %
04.08.2020 16:20 26,2 C 30,0 C 23,9 C 41 % 1017,0 hPa 0,0 l/m 2 min 0 min 761 W/m 12,9 km/h (3 Bft) 95,74 %
04.08.2020 16:22 26,2 C 29,4 C 23,9 C 41 % 1016,9 hPa 0,0 l/m 2 min 0 min 763 W/m 25,7 km/h (4 Bft) 95,83 %
04.08.2020 16:24 26,2 C 30,0 C 23,9 C 43 % 1017,0 hPa 0,0 l/m 2 min 0 min 758 W/m 6,4 km/h (2 Bft) 93,62 %
04.08.2020 16:26 26,2 C 29,4 C 23,9 C 41 % 1017,1 hPa 0,0 l/m 2 min 0 min 754 W/m 9,7 km/h (2 Bft) 93,62 %
04.08.2020 16:28 26,2 C 30,6 C 23,9 C 43 % 1017,0 hPa 0,0 l/m 2 min 0 min 746 W/m 6,4 km/h (2 Bft) 94,44 %
04.08.2020 16:30 26,2 C 30,6 C 23,9 C 42 % 1017,0 hPa 0,0 l/m 2 min 0 min 743 W/m 12,9 km/h (3 Bft) 95,74 %
04.08.2020 16:32 26,3 C 30,6 C 23,9 C 41 % 1017,0 hPa 0,0 l/m 2 min 0 min 743 W/m 9,7 km/h (2 Bft) 95,65 %
04.08.2020 16:34 26,3 C 30,0 C 24,4 C 41 % 1017,0 hPa 0,0 l/m 2 min 0 min 737 W/m 6,4 km/h (2 Bft) 97,14 %
04.08.2020 16:36 26,3 C 29,4 C 25,0 C 40 % 1016,9 hPa 0,0 l/m 2 min 0 min 730 W/m 12,9 km/h (3 Bft) 96,08 %
04.08.2020 16:38 26,3 C 28,9 C 24,4 C 40 % 1016,9 hPa 0,0 l/m 2 min 0 min 730 W/m 12,9 km/h (3 Bft) 95,74 %
04.08.2020 16:40 26,3 C 29,4 C 24,4 C 42 % 1017,0 hPa 0,0 l/m 2 min 0 min 722 W/m 16,1 km/h (3 Bft) 97,87 %
04.08.2020 16:42 26,3 C 30,0 C 24,4 C 41 % 1016,9 hPa 0,0 l/m 2 min 0 min 719 W/m 9,7 km/h (2 Bft) 95,74 %
04.08.2020 16:44 26,2 C 30,0 C 24,4 C 41 % 1016,9 hPa 0,0 l/m 2 min 0 min 715 W/m 6,4 km/h (2 Bft) 100,00 %
04.08.2020 16:46 26,2 C 28,9 C 23,9 C 41 % 1017,0 hPa 0,0 l/m 2 min 0 min 709 W/m 12,9 km/h (3 Bft) 100,00 %
04.08.2020 16:48 26,2 C 28,9 C 23,9 C 42 % 1017,0 hPa 0,0 l/m 2 min 0 min 707 W/m 12,9 km/h (3 Bft) 100,00 %
04.08.2020 16:50 26,2 C 28,9 C 23,9 C 41 % 1017,0 hPa 0,0 l/m 2 min 0 min 703 W/m 16,1 km/h (3 Bft) 100,00 %
04.08.2020 16:52 26,2 C 29,4 C 23,9 C 41 % 1016,9 hPa 0,0 l/m 2 min 0 min 694 W/m 9,7 km/h (2 Bft) 97,92 %
04.08.2020 16:54 26,2 C 29,4 C 23,9 C 41 % 1017,0 hPa 0,0 l/m 2 min 0 min 691 W/m 9,7 km/h (2 Bft) 100,00 %
04.08.2020 16:56 26,2 C 28,9 C 23,9 C 42 % 1016,9 hPa 0,0 l/m 2 min 0 min 684 W/m 9,7 km/h (2 Bft) 97,67 %
04.08.2020 16:58 26,2 C 28,9 C 23,9 C 42 % 1016,9 hPa 0,0 l/m 2 min 0 min 682 W/m 9,7 km/h (2 Bft) 100,00 %
04.08.2020 17:00 26,1 C 28,9 C 23,9 C 42 % 1017,0 hPa 0,0 l/m 2 min 0 min 679 W/m 9,7 km/h (2 Bft) 100,00 %
04.08.2020 17:02 26,1 C 28,9 C 23,9 C 42 % 1017,0 hPa 0,0 l/m 2 min 0 min 670 W/m 12,9 km/h (3 Bft) 97,87 %
04.08.2020 17:04 26,1 C 28,9 C 23,9 C 41 % 1017,0 hPa 0,0 l/m 2 min 0 min 663 W/m 16,1 km/h (3 Bft) 97,87 %
04.08.2020 17:06 26,0 C 27,2 C 23,9 C 40 % 1016,9 hPa 0,0 l/m 2 min 0 min 652 W/m 22,5 km/h (4 Bft) 97,87 %
04.08.2020 17:08 26,0 C 27,8 C 23,9 C 40 % 1016,9 hPa 0,0 l/m 2 min 0 min 642 W/m 9,7 km/h (2 Bft) 97,96 %
04.08.2020 17:10 25,9 C 28,3 C 24,4 C 42 % 1016,9 hPa 0,0 l/m 2 min 0 min 637 W/m 6,4 km/h (2 Bft) 97,87 %
04.08.2020 17:16 26,0 C 28,9 C 24,4 C 43 % 1016,9 hPa 0,0 l/m 5 min 0 min 629 W/m 9,7 km/h (2 Bft) 97,56 %
04.08.2020 17:18 26,0 C 28,9 C 23,9 C 42 % 1016,9 hPa 0,0 l/m 2 min 0 min 624 W/m 6,4 km/h (2 Bft) 95,65 %
04.08.2020 17:20 26,1 C 28,9 C 24,4 C 42 % 1016,9 hPa 0,0 l/m 2 min 0 min 620 W/m 6,4 km/h (2 Bft) 95,74 %
04.08.2020 17:22 26,1 C 28,9 C 24,4 C 43 % 1016,9 hPa 0,0 l/m 2 min 0 min 613 W/m 9,7 km/h (2 Bft) 97,87 %
04.08.2020 17:24 26,0 C 28,3 C 24,4 C 42 % 1016,9 hPa 0,0 l/m 2 min 0 min 607 W/m 16,1 km/h (3 Bft) 97,87 %
04.08.2020 17:26 26,1 C 28,9 C 24,4 C 43 % 1016,9 hPa 0,0 l/m 2 min 0 min 602 W/m 6,4 km/h (2 Bft) 97,87 %
04.08.2020 17:28 26,1 C 27,8 C 23,9 C 42 % 1016,9 hPa 0,0 l/m 2 min 0 min 601 W/m 9,7 km/h (2 Bft) 97,87 %
04.08.2020 17:30 26,1 C 28,3 C 23,9 C 41 % 1016,9 hPa 0,0 l/m 2 min 0 min 597 W/m 9,7 km/h (2 Bft) 97,83 %
04.08.2020 17:32 26,1 C 27,8 C 23,9 C 41 % 1016,9 hPa 0,0 l/m 2 min 0 min 590 W/m 16,1 km/h (3 Bft) 97,87 %
04.08.2020 17:34 26,1 C 27,8 C 23,3 C 42 % 1016,9 hPa 0,0 l/m 2 min 0 min 584 W/m 12,9 km/h (3 Bft) 97,87 %
04.08.2020 17:36 26,0 C 27,8 C 23,3 C 42 % 1016,9 hPa 0,0 l/m 2 min 0 min 574 W/m 9,7 km/h (2 Bft) 95,74 %
04.08.2020 17:38 25,9 C 27,8 C 23,3 C 42 % 1016,9 hPa 0,0 l/m 2 min 0 min 571 W/m 9,7 km/h (2 Bft) 97,87 %
04.08.2020 17:40 25,9 C 27,8 C 23,3 C 41 % 1017,0 hPa 0,0 l/m 2 min 0 min 564 W/m 6,4 km/h (2 Bft) 97,83 %
04.08.2020 17:42 25,9 C 27,2 C 23,3 C 41 % 1016,9 hPa 0,0 l/m 2 min 0 min 556 W/m 12,9 km/h (3 Bft) 97,87 %
04.08.2020 17:44 25,8 C 27,8 C 23,3 C 42 % 1016,9 hPa 0,0 l/m 2 min 0 min 551 W/m 9,7 km/h (2 Bft) 95,74 %
04.08.2020 17:46 25,8 C 27,8 C 23,3 C 42 % 1016,9 hPa 0,0 l/m 2 min 0 min 548 W/m 9,7 km/h (2 Bft) 97,87 %
04.08.2020 17:48 25,8 C 27,8 C 23,3 C 43 % 1016,9 hPa 0,0 l/m 2 min 0 min 542 W/m 6,4 km/h (2 Bft) 97,87 %
04.08.2020 17:50 25,8 C 27,8 C 23,3 C 43 % 1016,9 hPa 0,0 l/m 2 min 0 min 536 W/m 6,4 km/h (2 Bft) 97,87 %
04.08.2020 17:52 25,8 C 27,8 C 23,3 C 41 % 1016,9 hPa 0,0 l/m 2 min 0 min 530 W/m 6,4 km/h (2 Bft) 97,87 %
04.08.2020 17:54 25,7 C 27,8 C 23,3 C 42 % 1016,8 hPa 0,0 l/m 2 min 0 min 523 W/m 9,7 km/h (2 Bft) 97,83 %
04.08.2020 17:56 25,8 C 27,8 C 23,3 C 46 % 1016,8 hPa 0,0 l/m 2 min 0 min 518 W/m 6,4 km/h (2 Bft) 97,87 %
04.08.2020 17:58 25,8 C 27,8 C 23,3 C 43 % 1016,8 hPa 0,0 l/m 2 min 0 min 511 W/m 16,1 km/h (3 Bft) 97,87 %
04.08.2020 18:00 25,8 C 27,2 C 23,3 C 42 % 1016,9 hPa 0,0 l/m 2 min 0 min 500 W/m 16,1 km/h (3 Bft) 95,74 %
04.08.2020 18:02 25,7 C 27,2 C 23,3 C 41 % 1016,8 hPa 0,0 l/m 2 min 0 min 497 W/m 16,1 km/h (3 Bft) 100,00 %
04.08.2020 18:04 25,7 C 26,7 C 23,3 C 41 % 1016,9 hPa 0,0 l/m 2 min 0 min 483 W/m 9,7 km/h (2 Bft) 97,87 %
04.08.2020 18:08 25,6 C 26,7 C 23,3 C 43 % 1016,8 hPa 0,0 l/m 4 min 0 min 484 W/m 12,9 km/h (3 Bft) 98,92 %
04.08.2020 18:10 25,6 C 27,2 C 23,3 C 43 % 1016,8 hPa 0,0 l/m 2 min 0 min 479 W/m 9,7 km/h (2 Bft) 97,87 %
04.08.2020 18:12 25,6 C 27,2 C 22,8 C 42 % 1016,8 hPa 0,0 l/m 2 min 0 min 460 W/m 9,7 km/h (2 Bft) 100,00 %
04.08.2020 18:14 25,6 C 27,2 C 22,8 C 45 % 1016,7 hPa 0,0 l/m 2 min 0 min 465 W/m 9,7 km/h (2 Bft) 100,00 %
04.08.2020 18:16 25,5 C 26,7 C 22,8 C 43 % 1016,7 hPa 0,0 l/m 2 min 0 min 459 W/m 6,4 km/h (2 Bft) 100,00 %
04.08.2020 18:18 25,5 C 26,7 C 22,8 C 42 % 1016,7 hPa 0,0 l/m 2 min 0 min 454 W/m 12,9 km/h (3 Bft) 100,00 %
04.08.2020 18:20 25,5 C 26,7 C 22,2 C 41 % 1016,7 hPa 0,0 l/m 2 min 0 min 449 W/m 9,7 km/h (2 Bft) 100,00 %
04.08.2020 18:22 25,5 C 26,7 C 22,2 C 42 % 1016,6 hPa 0,0 l/m 2 min 0 min 441 W/m 3,2 km/h (1 Bft) 97,87 %
04.08.2020 18:24 25,5 C 27,2 C 22,2 C 45 % 1016,7 hPa 0,0 l/m 2 min 0 min 435 W/m 6,4 km/h (2 Bft) 100,00 %
04.08.2020 18:26 25,5 C 26,7 C 22,2 C 43 % 1016,7 hPa 0,0 l/m 2 min 0 min 431 W/m 9,7 km/h (2 Bft) 97,87 %
04.08.2020 18:28 25,5 C 26,7 C 22,2 C 45 % 1016,7 hPa 0,0 l/m 2 min 0 min 426 W/m 3,2 km/h (1 Bft) 97,83 %
04.08.2020 18:30 25,4 C 26,7 C 22,2 C 43 % 1016,7 hPa 0,0 l/m 2 min 0 min 420 W/m 9,7 km/h (2 Bft) 100,00 %
04.08.2020 18:32 25,4 C 26,7 C 22,2 C 44 % 1016,7 hPa 0,0 l/m 2 min 0 min 414 W/m 9,7 km/h (2 Bft) 100,00 %
04.08.2020 18:34 25,4 C 26,1 C 22,2 C 43 % 1016,7 hPa 0,0 l/m 2 min 0 min 387 W/m 9,7 km/h (2 Bft) 97,87 %
04.08.2020 18:36 25,4 C 26,1 C 22,2 C 43 % 1016,7 hPa 0,0 l/m 2 min 0 min 344 W/m 6,4 km/h (2 Bft) 100,00 %
04.08.2020 18:38 25,4 C 25,6 C 22,2 C 45 % 1016,6 hPa 0,0 l/m 2 min 0 min 357 W/m 6,4 km/h (2 Bft) 97,87 %
04.08.2020 18:40 25,3 C 25,6 C 22,2 C 44 % 1016,6 hPa 0,0 l/m 2 min 0 min 391 W/m 6,4 km/h (2 Bft) 100,00 %
04.08.2020 18:42 25,3 C 25,0 C 22,2 C 42 % 1016,7 hPa 0,0 l/m 2 min 0 min 383 W/m 12,9 km/h (3 Bft) 95,65 %
04.08.2020 18:44 25,3 C 25,6 C 22,2 C 43 % 1016,6 hPa 0,0 l/m 2 min 0 min 376 W/m 9,7 km/h (2 Bft) 97,87 %
04.08.2020 18:46 25,3 C 25,6 C 22,2 C 42 % 1016,6 hPa 0,0 l/m 2 min 0 min 367 W/m 6,4 km/h (2 Bft) 97,87 %
04.08.2020 18:48 25,3 C 25,0 C 21,7 C 44 % 1016,7 hPa 0,0 l/m 2 min 0 min 361 W/m 6,4 km/h (2 Bft) 97,87 %
04.08.2020 18:50 25,3 C 25,0 C 21,7 C 43 % 1016,7 hPa 0,0 l/m 2 min 0 min 352 W/m 6,4 km/h (2 Bft) 97,87 %
04.08.2020 18:52 25,3 C 25,0 C 21,7 C 44 % 1016,7 hPa 0,0 l/m 2 min 0 min 339 W/m 3,2 km/h (1 Bft) 95,74 %
04.08.2020 18:54 25,2 C 24,4 C 21,7 C 42 % 1016,7 hPa 0,0 l/m 2 min 0 min 334 W/m 6,4 km/h (2 Bft) 97,83 %
04.08.2020 18:56 25,2 C 25,0 C 21,7 C 43 % 1016,7 hPa 0,0 l/m 2 min 0 min 334 W/m 6,4 km/h (2 Bft) 95,74 %
04.08.2020 18:58 25,2 C 24,4 C 21,7 C 43 % 1016,6 hPa 0,0 l/m 2 min 0 min 328 W/m 12,9 km/h (3 Bft) 97,87 %
04.08.2020 19:00 25,2 C 24,4 C 21,7 C 44 % 1016,6 hPa 0,0 l/m 2 min 0 min 321 W/m 6,4 km/h (2 Bft) 97,87 %
04.08.2020 19:02 25,2 C 24,4 C 21,7 C 44 % 1016,7 hPa 0,0 l/m 2 min 0 min 313 W/m 6,4 km/h (2 Bft) 93,62 %
04.08.2020 19:04 25,1 C 23,9 C 21,7 C 44 % 1016,7 hPa 0,0 l/m 2 min 0 min 308 W/m 9,7 km/h (2 Bft) 89,36 %
04.08.2020 19:06 25,0 C 23,9 C 21,7 C 43 % 1016,7 hPa 0,0 l/m 2 min 0 min 303 W/m 6,4 km/h (2 Bft) 97,83 %
04.08.2020 19:08 24,9 C 23,9 C 21,1 C 43 % 1016,6 hPa 0,0 l/m 2 min 0 min 288 W/m 6,4 km/h (2 Bft) 93,62 %
04.08.2020 19:10 24,9 C 23,3 C 21,1 C 44 % 1016,7 hPa 0,0 l/m 2 min 0 min 288 W/m 6,4 km/h (2 Bft) 89,36 %
04.08.2020 19:12 24,7 C 22,8 C 21,1 C 44 % 1016,7 hPa 0,0 l/m 2 min 0 min 281 W/m 6,4 km/h (2 Bft) 89,36 %
04.08.2020 19:14 24,6 C 22,2 C 21,1 C 43 % 1016,7 hPa 0,0 l/m 2 min 0 min 268 W/m 12,9 km/h (3 Bft) 87,23 %
04.08.2020 19:16 24,6 C 22,2 C 21,1 C 44 % 1016,7 hPa 0,0 l/m 2 min 0 min 219 W/m 6,4 km/h (2 Bft) 84,78 %
04.08.2020 19:18 24,4 C 21,7 C 20,6 C 44 % 1016,7 hPa 0,0 l/m 0 min 0 min 50 W/m 3,2 km/h (1 Bft) 91,49 %
04.08.2020 19:20 24,3 C 21,7 C 20,6 C 44 % 1016,7 hPa 0,0 l/m 0 min 0 min 53 W/m 6,4 km/h (2 Bft) 89,36 %
04.08.2020 19:22 24,2 C 21,1 C 20,6 C 46 % 1016,7 hPa 0,0 l/m 0 min 0 min 55 W/m 3,2 km/h (1 Bft) 91,49 %
04.08.2020 19:24 24,1 C 21,1 C 20,6 C 46 % 1016,7 hPa 0,0 l/m 0 min 0 min 53 W/m 3,2 km/h (1 Bft) 95,74 %
04.08.2020 19:26 23,9 C 21,1 C 20,6 C 45 % 1016,6 hPa 0,0 l/m 0 min 0 min 47 W/m 6,4 km/h (2 Bft) 93,62 %
04.08.2020 19:28 23,8 C 21,1 C 20,0 C 46 % 1016,7 hPa 0,0 l/m 0 min 0 min 48 W/m 6,4 km/h (2 Bft) 96,08 %
04.08.2020 19:30 23,7 C 21,1 C 20,6 C 45 % 1016,6 hPa 0,0 l/m 0 min 0 min 49 W/m 3,2 km/h (1 Bft) 95,74 %
04.08.2020 19:32 23,6 C 21,1 C 20,0 C 46 % 1016,7 hPa 0,0 l/m 0 min 0 min 47 W/m 3,2 km/h (1 Bft) 89,36 %
04.08.2020 19:34 23,6 C 21,1 C 20,0 C 46 % 1016,7 hPa 0,0 l/m 0 min 0 min 46 W/m 3,2 km/h (1 Bft) 95,74 %
04.08.2020 19:36 23,5 C 21,1 C 20,0 C 46 % 1016,7 hPa 0,0 l/m 0 min 0 min 46 W/m 3,2 km/h (1 Bft) 95,74 %
04.08.2020 19:38 23,4 C 21,1 C 20,0 C 46 % 1016,7 hPa 0,0 l/m 0 min 0 min 43 W/m 9,7 km/h (2 Bft) 95,65 %
04.08.2020 19:41 23,3 C 21,1 C 20,6 C 45 % 1016,8 hPa 0,0 l/m 0 min 0 min 41 W/m 16,1 km/h (3 Bft) 95,77 %
04.08.2020 19:42 23,3 C 21,1 C 20,6 C 45 % 1016,8 hPa 0,0 l/m 0 min 0 min 42 W/m 6,4 km/h (2 Bft) 95,65 %
04.08.2020 19:44 23,2 C 21,1 C 20,6 C 46 % 1016,8 hPa 0,0 l/m 0 min 0 min 40 W/m 6,4 km/h (2 Bft) 95,74 %
04.08.2020 19:46 23,1 C 21,1 C 20,6 C 46 % 1016,8 hPa 0,0 l/m 0 min 0 min 39 W/m 3,2 km/h (1 Bft) 97,23 %
04.08.2020 19:48 23,1 C 21,1 C 20,6 C 47 % 1016,8 hPa 0,0 l/m 0 min 0 min 37 W/m 6,4 km/h (2 Bft) 95,24 %
04.08.2020 19:50 22,9 C 21,1 C 20,6 C 48 % 1016,8 hPa 0,0 l/m 0 min 0 min 38 W/m 3,2 km/h (1 Bft) 91,49 %
04.08.2020 19:52 22,9 C 20,6 C 20,0 C 51 % 1016,8 hPa 0,0 l/m 0 min 0 min 36 W/m 3,2 km/h (1 Bft) 87,23 %
04.08.2020 19:54 22,8 C 20,6 C 20,0 C 48 % 1016,8 hPa 0,0 l/m 0 min 0 min 32 W/m 6,4 km/h (2 Bft) 91,49 %
04.08.2020 19:56 22,7 C 20,6 C 20,0 C 47 % 1016,8 hPa 0,0 l/m 0 min 0 min 32 W/m 6,4 km/h (2 Bft) 91,49 %
04.08.2020 19:58 22,7 C 20,6 C 20,0 C 49 % 1016,8 hPa 0,0 l/m 0 min 0 min 29 W/m 3,2 km/h (1 Bft) 91,49 %
04.08.2020 20:00 22,6 C 20,6 C 20,0 C 49 % 1016,8 hPa 0,0 l/m 0 min 0 min 27 W/m 3,2 km/h (1 Bft) 95,65 %
04.08.2020 20:02 22,6 C 20,6 C 19,4 C 49 % 1016,8 hPa 0,0 l/m 0 min 0 min 31 W/m 3,2 km/h (1 Bft) 82,98 %
04.08.2020 20:04 22,6 C 20,0 C 19,4 C 53 % 1016,8 hPa 0,0 l/m 0 min 0 min 27 W/m 0,0 km/h (0 Bft) 89,36 %
04.08.2020 20:06 22,4 C 20,0 C 19,4 C 51 % 1016,7 hPa 0,0 l/m 0 min 0 min 26 W/m 3,2 km/h (1 Bft) 91,49 %
04.08.2020 20:08 22,4 C 20,0 C 19,4 C 50 % 1016,8 hPa 0,0 l/m 0 min 0 min 26 W/m 3,2 km/h (1 Bft) 95,74 %
04.08.2020 20:10 22,3 C 20,0 C 19,4 C 49 % 1016,8 hPa 0,0 l/m 0 min 0 min 26 W/m 3,2 km/h (1 Bft) 91,49 %
04.08.2020 20:12 22,3 C 20,0 C 19,4 C 50 % 1016,8 hPa 0,0 l/m 0 min 0 min 26 W/m 3,2 km/h (1 Bft) 93,48 %
04.08.2020 20:14 22,2 C 20,0 C 18,9 C 51 % 1016,8 hPa 0,0 l/m 0 min 0 min 26 W/m 3,2 km/h (1 Bft) 91,49 %
04.08.2020 20:16 22,1 C 19,4 C 18,9 C 52 % 1016,8 hPa 0,0 l/m 0 min 0 min 26 W/m 3,2 km/h (1 Bft) 95,74 %
04.08.2020 20:18 22,1 C 19,4 C 18,9 C 51 % 1016,8 hPa 0,0 l/m 0 min 0 min 25 W/m 3,2 km/h (1 Bft) 87,23 %
04.08.2020 20:20 22,0 C 19,4 C 18,9 C 52 % 1016,8 hPa 0,0 l/m 0 min 0 min 25 W/m 0,0 km/h (0 Bft) 89,36 %
04.08.2020 20:22 21,9 C 19,4 C 18,9 C 51 % 1016,9 hPa 0,0 l/m 0 min 0 min 23 W/m 3,2 km/h (1 Bft) 97,87 %
04.08.2020 20:24 21,9 C 19,4 C 18,3 C 50 % 1016,8 hPa 0,0 l/m 0 min 0 min 22 W/m 3,2 km/h (1 Bft) 97,83 %
04.08.2020 20:26 21,8 C 19,4 C 18,3 C 51 % 1016,8 hPa 0,0 l/m 0 min 0 min 19 W/m 0,0 km/h (0 Bft) 95,74 %
04.08.2020 20:28 21,7 C 19,4 C 18,3 C 50 % 1016,8 hPa 0,0 l/m 0 min 0 min 19 W/m 0,0 km/h (0 Bft) 97,87 %
04.08.2020 20:30 21,7 C 19,4 C 18,3 C 51 % 1016,9 hPa 0,0 l/m 0 min 0 min 18 W/m 0,0 km/h (0 Bft) 100,00 %
04.08.2020 20:32 21,6 C 19,4 C 18,3 C 50 % 1016,8 hPa 0,0 l/m 0 min 0 min 18 W/m 0,0 km/h (0 Bft) 95,74 %
04.08.2020 20:34 21,6 C 18,9 C 18,3 C 53 % 1016,9 hPa 0,0 l/m 0 min 0 min 17 W/m 0,0 km/h (0 Bft) 100,00 %
04.08.2020 20:36 21,5 C 18,9 C 17,8 C 52 % 1016,8 hPa 0,0 l/m 0 min 0 min 16 W/m 0,0 km/h (0 Bft) 100,00 %
04.08.2020 20:38 21,4 C 18,9 C 17,8 C 53 % 1016,8 hPa 0,0 l/m 0 min 0 min 14 W/m 0,0 km/h (0 Bft) 100,00 %
04.08.2020 20:40 21,3 C 18,3 C 17,8 C 53 % 1016,8 hPa 0,0 l/m 0 min 0 min 12 W/m 0,0 km/h (0 Bft) 97,96 %
04.08.2020 20:42 21,3 C 18,3 C 17,2 C 54 % 1016,8 hPa 0,0 l/m 0 min 0 min 12 W/m 0,0 km/h (0 Bft) 97,87 %
04.08.2020 20:44 21,2 C 18,3 C 17,2 C 54 % 1016,8 hPa 0,0 l/m 0 min 0 min 12 W/m 0,0 km/h (0 Bft) 100,00 %
04.08.2020 20:46 21,1 C 18,3 C 17,2 C 54 % 1016,8 hPa 0,0 l/m 0 min 0 min 11 W/m 0,0 km/h (0 Bft) 97,87 %
04.08.2020 20:48 21,1 C 17,8 C 17,2 C 55 % 1016,7 hPa 0,0 l/m 0 min 0 min 11 W/m 0,0 km/h (0 Bft) 100,00 %
04.08.2020 20:50 20,9 C 17,8 C 16,7 C 53 % 1016,7 hPa 0,0 l/m 0 min 0 min 10 W/m 0,0 km/h (0 Bft) 100,00 %
04.08.2020 20:52 20,8 C 17,8 C 16,7 C 54 % 1016,7 hPa 0,0 l/m 0 min 0 min 9 W/m 0,0 km/h (0 Bft) 100,00 %
04.08.2020 20:54 20,7 C 17,8 C 16,7 C 54 % 1016,7 hPa 0,0 l/m 0 min 0 min 9 W/m 0,0 km/h (0 Bft) 100,00 %
04.08.2020 20:56 20,6 C 17,2 C 16,7 C 53 % 1016,7 hPa 0,0 l/m 0 min 0 min 8 W/m 0,0 km/h (0 Bft) 100,00 %
04.08.2020 20:58 20,6 C 17,2 C 16,1 C 54 % 1016,7 hPa 0,0 l/m 0 min 0 min 7 W/m 0,0 km/h (0 Bft) 100,00 %
04.08.2020 21:00 20,4 C 17,2 C 16,1 C 54 % 1016,7 hPa 0,0 l/m 0 min 0 min 7 W/m 0,0 km/h (0 Bft) 100,00 %
04.08.2020 21:02 20,3 C 17,2 C 16,1 C 55 % 1016,7 hPa 0,0 l/m 0 min 0 min 6 W/m 0,0 km/h (0 Bft) 100,00 %
04.08.2020 21:04 20,2 C 16,7 C 16,1 C 55 % 1016,7 hPa 0,0 l/m 0 min 0 min 5 W/m 0,0 km/h (0 Bft) 97,87 %
04.08.2020 21:06 20,1 C 16,7 C 16,1 C 55 % 1016,7 hPa 0,0 l/m 0 min 0 min 5 W/m 0,0 km/h (0 Bft) 100,00 %
04.08.2020 21:08 20,1 C 16,7 C 15,6 C 56 % 1016,9 hPa 0,0 l/m 0 min 0 min 5 W/m 0,0 km/h (0 Bft) 100,00 %
04.08.2020 21:10 19,9 C 16,7 C 15,6 C 55 % 1016,8 hPa 0,0 l/m 0 min 0 min 1 W/m 0,0 km/h (0 Bft) 100,00 %
04.08.2020 21:12 19,8 C 16,7 C 15,6 C 55 % 1016,9 hPa 0,0 l/m 0 min 0 min 0 W/m 0,0 km/h (0 Bft) 100,00 %
04.08.2020 21:14 19,7 C 16,7 C 15,6 C 55 % 1016,9 hPa 0,0 l/m 0 min 0 min 0 W/m 0,0 km/h (0 Bft) 100,00 %
04.08.2020 21:16 19,7 C 16,7 C 15,6 C 57 % 1017,0 hPa 0,0 l/m 0 min 0 min 0 W/m 0,0 km/h (0 Bft) 100,00 %
04.08.2020 21:18 19,6 C 16,7 C 15,6 C 57 % 1017,0 hPa 0,0 l/m 0 min 0 min 0 W/m 0,0 km/h (0 Bft) 100,00 %
04.08.2020 21:20 19,5 C 16,1 C 15,6 C 58 % 1016,9 hPa 0,0 l/m 0 min 0 min 0 W/m 0,0 km/h (0 Bft) 97,83 %
04.08.2020 21:22 19,4 C 16,1 C 15,6 C 58 % 1017,0 hPa 0,0 l/m 0 min 0 min 0 W/m 0,0 km/h (0 Bft) 100,00 %
04.08.2020 21:24 19,3 C 16,1 C 15,6 C 58 % 1017,0 hPa 0,0 l/m 0 min 0 min 0 W/m 0,0 km/h (0 Bft) 95,74 %
04.08.2020 21:26 19,3 C 16,1 C 15,0 C 59 % 1017,0 hPa 0,0 l/m 0 min 0 min 0 W/m 0,0 km/h (0 Bft) 97,87 %
04.08.2020 21:28 19,2 C 16,1 C 15,0 C 58 % 1017,0 hPa 0,0 l/m 0 min 0 min 0 W/m 0,0 km/h (0 Bft) 100,00 %
04.08.2020 21:30 19,1 C 15,6 C 15,0 C 59 % 1017,0 hPa 0,0 l/m 0 min 0 min 0 W/m 0,0 km/h (0 Bft) 80,85 %
04.08.2020 21:32 19,0 C 15,6 C 15,0 C 59 % 1017,0 hPa 0,0 l/m 0 min 0 min 0 W/m 0,0 km/h (0 Bft) 80,43 %
04.08.2020 21:34 18,9 C 15,6 C 15,0 C 59 % 1017,1 hPa 0,0 l/m 0 min 0 min 0 W/m 0,0 km/h (0 Bft) 95,74 %
04.08.2020 21:36 18,8 C 15,6 C 15,0 C 59 % 1017,0 hPa 0,0 l/m 0 min 0 min 0 W/m 0,0 km/h (0 Bft) 97,87 %
04.08.2020 21:38 18,7 C 15,6 C 15,0 C 59 % 1017,1 hPa 0,0 l/m 0 min 0 min 0 W/m 0,0 km/h (0 Bft) 97,87 %
04.08.2020 21:40 18,6 C 15,6 C 15,0 C 59 % 1017,1 hPa 0,0 l/m 0 min 0 min 0 W/m 0,0 km/h (0 Bft) 97,87 %
04.08.2020 21:42 18,5 C 15,6 C 15,0 C 59 % 1017,1 hPa 0,0 l/m 0 min 0 min 0 W/m 0,0 km/h (0 Bft) 97,87 %
04.08.2020 21:44 18,4 C 15,6 C 14,4 C 61 % 1017,1 hPa 0,0 l/m 0 min 0 min 0 W/m 0,0 km/h (0 Bft) 95,65 %
04.08.2020 21:46 18,3 C 15,6 C 15,0 C 61 % 1017,2 hPa 0,0 l/m 0 min 0 min 0 W/m 0,0 km/h (0 Bft) 97,87 %
04.08.2020 21:48 18,3 C 15,6 C 15,0 C 61 % 1017,2 hPa 0,0 l/m 0 min 0 min 0 W/m 0,0 km/h (0 Bft) 97,87 %
04.08.2020 21:50 18,2 C 15,0 C 14,4 C 61 % 1017,2 hPa 0,0 l/m 0 min 0 min 0 W/m 0,0 km/h (0 Bft) 97,87 %
04.08.2020 21:52 18,2 C 15,6 C 14,4 C 61 % 1017,2 hPa 0,0 l/m 0 min 0 min 0 W/m 0,0 km/h (0 Bft) 95,74 %
04.08.2020 21:54 18,1 C 15,0 C 14,4 C 61 % 1017,2 hPa 0,0 l/m 0 min 0 min 0 W/m 0,0 km/h (0 Bft) 97,87 %
04.08.2020 21:56 18,0 C 15,0 C 14,4 C 61 % 1017,2 hPa 0,0 l/m 0 min 0 min 0 W/m 0,0 km/h (0 Bft) 97,83 %
04.08.2020 21:58 17,9 C 15,0 C 14,4 C 61 % 1017,2 hPa 0,0 l/m 0 min 0 min 0 W/m 0,0 km/h (0 Bft) 97,87 %
04.08.2020 22:00 17,9 C 15,0 C 14,4 C 62 % 1017,1 hPa 0,0 l/m 0 min 0 min 0 W/m 0,0 km/h (0 Bft) 97,87 %
04.08.2020 22:02 17,8 C 15,0 C 14,4 C 62 % 1017,2 hPa 0,0 l/m 0 min 0 min 0 W/m 0,0 km/h (0 Bft) 97,87 %
04.08.2020 22:04 17,8 C 15,0 C 14,4 C 62 % 1017,2 hPa 0,0 l/m 0 min 0 min 0 W/m 0,0 km/h (0 Bft) 97,87 %
04.08.2020 22:06 17,7 C 15,0 C 14,4 C 62 % 1017,2 hPa 0,0 l/m 0 min 0 min 0 W/m 0,0 km/h (0 Bft) 100,00 %
04.08.2020 22:08 17,6 C 15,0 C 14,4 C 63 % 1017,2 hPa 0,0 l/m 0 min 0 min 0 W/m 0,0 km/h (0 Bft) 97,83 %
04.08.2020 22:10 17,6 C 15,0 C 14,4 C 63 % 1017,2 hPa 0,0 l/m 0 min 0 min 0 W/m 0,0 km/h (0 Bft) 100,00 %
04.08.2020 22:12 17,5 C 15,0 C 14,4 C 63 % 1017,2 hPa 0,0 l/m 0 min 0 min 0 W/m 0,0 km/h (0 Bft) 97,87 %
04.08.2020 22:14 17,5 C 15,0 C 14,4 C 63 % 1017,2 hPa 0,0 l/m 0 min 0 min 0 W/m 0,0 km/h (0 Bft) 95,74 %
04.08.2020 22:16 17,4 C 15,0 C 15,0 C 64 % 1017,2 hPa 0,0 l/m 0 min 0 min 0 W/m 0,0 km/h (0 Bft) 100,00 %
04.08.2020 22:18 17,4 C 15,0 C 15,0 C 64 % 1017,2 hPa 0,0 l/m 0 min 0 min 0 W/m 0,0 km/h (0 Bft) 100,00 %
04.08.2020 22:20 17,3 C 15,0 C 15,0 C 64 % 1017,2 hPa 0,0 l/m 0 min 0 min 0 W/m 0,0 km/h (0 Bft) 100,00 %
04.08.2020 22:22 17,3 C 15,0 C 15,0 C 64 % 1017,3 hPa 0,0 l/m 0 min 0 min 0 W/m 0,0 km/h (0 Bft) 100,00 %
04.08.2020 22:24 17,2 C 15,0 C 14,4 C 64 % 1017,2 hPa 0,0 l/m 0 min 0 min 0 W/m 0,0 km/h (0 Bft) 100,00 %
04.08.2020 22:26 17,2 C 15,0 C 14,4 C 64 % 1017,3 hPa 0,0 l/m 0 min 0 min 0 W/m 0,0 km/h (0 Bft) 100,00 %
04.08.2020 22:28 17,2 C 15,0 C 14,4 C 64 % 1017,2 hPa 0,0 l/m 0 min 0 min 0 W/m 0,0 km/h (0 Bft) 100,00 %
04.08.2020 22:30 17,1 C 15,0 C 14,4 C 64 % 1017,2 hPa 0,0 l/m 0 min 0 min 0 W/m 0,0 km/h (0 Bft) 100,00 %
04.08.2020 22:32 17,1 C 15,0 C 14,4 C 64 % 1017,2 hPa 0,0 l/m 0 min 0 min 0 W/m 0,0 km/h (0 Bft) 97,87 %
04.08.2020 22:34 17,1 C 15,0 C 14,4 C 64 % 1017,2 hPa 0,0 l/m 0 min 0 min 0 W/m 0,0 km/h (0 Bft) 100,00 %
04.08.2020 22:36 17,0 C 14,4 C 14,4 C 65 % 1017,2 hPa 0,0 l/m 0 min 0 min 0 W/m 0,0 km/h (0 Bft) 100,00 %
04.08.2020 22:38 16,9 C 14,4 C 14,4 C 65 % 1017,1 hPa 0,0 l/m 0 min 0 min 0 W/m 0,0 km/h (0 Bft) 100,00 %
04.08.2020 22:40 16,9 C 14,4 C 14,4 C 65 % 1017,1 hPa 0,0 l/m 0 min 0 min 0 W/m 0,0 km/h (0 Bft) 100,00 %
04.08.2020 22:42 16,9 C 14,4 C 13,9 C 65 % 1017,1 hPa 0,0 l/m 0 min 0 min 0 W/m 0,0 km/h (0 Bft) 100,00 %
04.08.2020 22:44 16,8 C 14,4 C 13,9 C 65 % 1017,0 hPa 0,0 l/m 0 min 0 min 0 W/m 0,0 km/h (0 Bft) 100,00 %
04.08.2020 22:46 16,8 C 14,4 C 13,9 C 65 % 1017,1 hPa 0,0 l/m 0 min 0 min 0 W/m 0,0 km/h (0 Bft) 100,00 %
04.08.2020 22:48 16,8 C 14,4 C 13,9 C 65 % 1017,0 hPa 0,0 l/m 0 min 0 min 0 W/m 0,0 km/h (0 Bft) 100,00 %
04.08.2020 22:50 16,7 C 14,4 C 13,9 C 66 % 1017,1 hPa 0,0 l/m 0 min 0 min 0 W/m 0,0 km/h (0 Bft) 95,74 %
04.08.2020 22:52 16,7 C 14,4 C 13,9 C 66 % 1017,0 hPa 0,0 l/m 0 min 0 min 0 W/m 0,0 km/h (0 Bft) 97,87 %
04.08.2020 22:54 16,7 C 14,4 C 13,9 C 66 % 1017,0 hPa 0,0 l/m 0 min 0 min 0 W/m 0,0 km/h (0 Bft) 97,87 %
04.08.2020 22:56 16,6 C 14,4 C 13,9 C 66 % 1017,0 hPa 0,0 l/m 0 min 0 min 0 W/m 0,0 km/h (0 Bft) 93,62 %
04.08.2020 22:58 16,6 C 14,4 C 13,9 C 66 % 1017,0 hPa 0,0 l/m 0 min 0 min 0 W/m 0,0 km/h (0 Bft) 97,83 %
04.08.2020 23:00 16,6 C 14,4 C 13,9 C 66 % 1017,0 hPa 0,0 l/m 0 min 0 min 0 W/m 0,0 km/h (0 Bft) 97,87 %
04.08.2020 23:02 16,5 C 14,4 C 13,9 C 66 % 1017,0 hPa 0,0 l/m 0 min 0 min 0 W/m 0,0 km/h (0 Bft) 97,87 %
04.08.2020 23:04 16,4 C 14,4 C 13,9 C 66 % 1017,0 hPa 0,0 l/m 0 min 0 min 0 W/m 0,0 km/h (0 Bft) 95,74 %
04.08.2020 23:06 16,4 C 14,4 C 13,9 C 66 % 1017,0 hPa 0,0 l/m 0 min 0 min 0 W/m 0,0 km/h (0 Bft) 97,87 %
04.08.2020 23:08 16,4 C 14,4 C 13,9 C 66 % 1017,1 hPa 0,0 l/m 0 min 0 min 0 W/m 0,0 km/h (0 Bft) 95,74 %
04.08.2020 23:10 16,3 C 14,4 C 13,9 C 67 % 1017,1 hPa 0,0 l/m 0 min 0 min 0 W/m 0,0 km/h (0 Bft) 97,83 %
04.08.2020 23:12 16,3 C 14,4 C 13,9 C 66 % 1017,1 hPa 0,0 l/m 0 min 0 min 0 W/m 0,0 km/h (0 Bft) 93,62 %
04.08.2020 23:14 16,3 C 14,4 C 13,9 C 66 % 1017,0 hPa 0,0 l/m 0 min 0 min 0 W/m 0,0 km/h (0 Bft) 95,74 %
04.08.2020 23:16 16,2 C 14,4 C 13,9 C 66 % 1017,1 hPa 0,0 l/m 0 min 0 min 0 W/m 0,0 km/h (0 Bft) 95,74 %
04.08.2020 23:18 16,2 C 14,4 C 13,9 C 67 % 1017,0 hPa 0,0 l/m 0 min 0 min 0 W/m 0,0 km/h (0 Bft) 96,23 %
04.08.2020 23:20 16,2 C 14,4 C 13,9 C 67 % 1017,1 hPa 0,0 l/m 0 min 0 min 0 W/m 3,2 km/h (1 Bft) 95,74 %
04.08.2020 23:22 16,1 C 14,4 C 13,9 C 67 % 1017,0 hPa 0,0 l/m 0 min 0 min 0 W/m 3,2 km/h (1 Bft) 93,62 %
04.08.2020 23:24 16,1 C 14,4 C 13,9 C 67 % 1017,0 hPa 0,0 l/m 0 min 0 min 0 W/m 3,2 km/h (1 Bft) 91,49 %
04.08.2020 23:26 16,1 C 14,4 C 13,9 C 67 % 1017,0 hPa 0,0 l/m 0 min 0 min 0 W/m 0,0 km/h (0 Bft) 95,74 %
04.08.2020 23:28 16,1 C 14,4 C 13,9 C 67 % 1017,1 hPa 0,0 l/m 0 min 0 min 0 W/m 0,0 km/h (0 Bft) 95,74 %
04.08.2020 23:30 16,0 C 14,4 C 13,9 C 68 % 1017,0 hPa 0,0 l/m 0 min 0 min 0 W/m 3,2 km/h (1 Bft) 93,48 %
04.08.2020 23:32 16,0 C 14,4 C 13,9 C 68 % 1017,1 hPa 0,0 l/m 0 min 0 min 0 W/m 0,0 km/h (0 Bft) 91,67 %
04.08.2020 23:34 15,9 C 14,4 C 13,9 C 68 % 1017,1 hPa 0,0 l/m 0 min 0 min 0 W/m 0,0 km/h (0 Bft) 93,62 %
04.08.2020 23:36 15,9 C 14,4 C 13,9 C 68 % 1017,1 hPa 0,0 l/m 0 min 0 min 0 W/m 0,0 km/h (0 Bft) 93,62 %
04.08.2020 23:38 15,9 C 14,4 C 13,9 C 68 % 1017,0 hPa 0,0 l/m 0 min 0 min 0 W/m 0,0 km/h (0 Bft) 93,62 %
04.08.2020 23:40 15,9 C 14,4 C 13,3 C 68 % 1017,0 hPa 0,0 l/m 0 min 0 min 0 W/m 3,2 km/h (1 Bft) 91,84 %
04.08.2020 23:42 15,9 C 14,4 C 13,3 C 68 % 1017,0 hPa 0,0 l/m 0 min 0 min 0 W/m 0,0 km/h (0 Bft) 93,62 %
04.08.2020 23:44 15,8 C 14,4 C 13,3 C 68 % 1017,0 hPa 0,0 l/m 0 min 0 min 0 W/m 0,0 km/h (0 Bft) 91,49 %
04.08.2020 23:46 15,8 C 13,9 C 13,3 C 68 % 1017,0 hPa 0,0 l/m 0 min 0 min 0 W/m 0,0 km/h (0 Bft) 95,74 %
04.08.2020 23:48 15,8 C 13,9 C 13,3 C 68 % 1017,0 hPa 0,0 l/m 0 min 0 min 0 W/m 0,0 km/h (0 Bft) 95,74 %
04.08.2020 23:50 15,8 C 13,9 C 13,3 C 69 % 1017,1 hPa 0,0 l/m 0 min 0 min 0 W/m 0,0 km/h (0 Bft) 93,62 %
04.08.2020 23:52 15,7 C 13,9 C 13,3 C 69 % 1017,1 hPa 0,0 l/m 0 min 0 min 0 W/m 0,0 km/h (0 Bft) 95,65 %
04.08.2020 23:54 15,7 C 13,9 C 13,3 C 69 % 1017,0 hPa 0,0 l/m 0 min 0 min 0 W/m 3,2 km/h (1 Bft) 95,74 %
04.08.2020 23:56 15,7 C 14,4 C 13,3 C 70 % 1017,0 hPa 0,0 l/m 0 min 0 min 0 W/m 3,2 km/h (1 Bft) 93,62 %
04.08.2020 23:58 15,7 C 14,4 C 13,3 C 70 % 1017,1 hPa 0,0 l/m 0 min 0 min 0 W/m 0,0 km/h (0 Bft) 91,49 %
_ Min-Zeit 06:32 06:04 05:42 16:04 00:00 - - - - 00:02 00:02
Minimum _ 12,3 C 10,6 C 11,1 C 40 % 1014,5 hPa - - - - 0,0 km/h (0 Bft) 12,50 %
_ Max-Zeit 16:32 14:02 14:08 08:42 09:44 00:00 17:16 00:00 13:50 16:22 00:08
Maximum _ 26,3 C 32,2 C 34,4 C 97 % 1017,6 hPa 0,0 l/m 5 min 0 min 1044 W/m 25,7 km/h
W (4 Bft)
100,00 %
Durchschnitt _ 19,4 C 20,1 C 18,5 C 68 % 1016,6 hPa #0,0 l/m #9:35 h #0 min. 478 W/m 5,4 km/h (1 Bft) 96,93 %
© 2020 W. Hausmann